<?xml version="1.0" encoding="utf-8"?>
<gpx xmlns:xsi="http://www.w3.org/2001/XMLSchema-instance" xmlns:xsd="http://www.w3.org/2001/XMLSchema" version="1.1" creator="Shapelink.com" xmlns="http://www.topografix.com/GPX/1/1" xmlns:gpxtpx="http://www.garmin.com/xmlschemas/TrackPointExtension/v1">
  <metadata>
    <name>Sykling 26.88 km, 2012-05-19</name>
    <desc></desc>
    <author><name>Mikael Blom</name></author> 
    <time>2012-05-19T14:30:56Z</time>
  </metadata>
  <trk>
    <name>Sykling 26.88 km, 2012-05-19</name>
    <trkseg>
      <trkpt lat="59.9810128" lon="17.7386581">
        <ele>47.2418</ele>
        <time>2012-05-19T14:30:56Z</time>
      </trkpt>
      <trkpt lat="59.9812775" lon="17.7385747">
        <ele>48.2034</ele>
        <time>2012-05-19T14:31:03Z</time>
      </trkpt>
      <trkpt lat="59.9814786" lon="17.7385155">
        <ele>46.7612</ele>
        <time>2012-05-19T14:31:09Z</time>
      </trkpt>
      <trkpt lat="59.9817208" lon="17.73843">
        <ele>46.7612</ele>
        <time>2012-05-19T14:31:16Z</time>
      </trkpt>
      <trkpt lat="59.9820229" lon="17.7382857">
        <ele>46.2806</ele>
        <time>2012-05-19T14:31:23Z</time>
      </trkpt>
      <trkpt lat="59.9822245" lon="17.7382072">
        <ele>47.7225</ele>
        <time>2012-05-19T14:31:27Z</time>
      </trkpt>
      <trkpt lat="59.9825963" lon="17.7381588">
        <ele>50.126</ele>
        <time>2012-05-19T14:31:34Z</time>
      </trkpt>
      <trkpt lat="59.9831459" lon="17.7381832">
        <ele>53.0098</ele>
        <time>2012-05-19T14:31:43Z</time>
      </trkpt>
      <trkpt lat="59.9835847" lon="17.7381019">
        <ele>51.0872</ele>
        <time>2012-05-19T14:31:50Z</time>
      </trkpt>
      <trkpt lat="59.9839768" lon="17.7380252">
        <ele>52.0486</ele>
        <time>2012-05-19T14:31:57Z</time>
      </trkpt>
      <trkpt lat="59.9842559" lon="17.7380549">
        <ele>53.0098</ele>
        <time>2012-05-19T14:32:03Z</time>
      </trkpt>
      <trkpt lat="59.984658" lon="17.7381502">
        <ele>52.0486</ele>
        <time>2012-05-19T14:32:10Z</time>
      </trkpt>
      <trkpt lat="59.9849553" lon="17.7382221">
        <ele>49.1646</ele>
        <time>2012-05-19T14:32:16Z</time>
      </trkpt>
      <trkpt lat="59.9852916" lon="17.738306">
        <ele>46.2806</ele>
        <time>2012-05-19T14:32:23Z</time>
      </trkpt>
      <trkpt lat="59.9856778" lon="17.7384468">
        <ele>47.2418</ele>
        <time>2012-05-19T14:32:30Z</time>
      </trkpt>
      <trkpt lat="59.9860709" lon="17.7386385">
        <ele>48.684</ele>
        <time>2012-05-19T14:32:37Z</time>
      </trkpt>
      <trkpt lat="59.986409" lon="17.7388856">
        <ele>50.126</ele>
        <time>2012-05-19T14:32:44Z</time>
      </trkpt>
      <trkpt lat="59.9867042" lon="17.7391462">
        <ele>55.4131</ele>
        <time>2012-05-19T14:32:51Z</time>
      </trkpt>
      <trkpt lat="59.9869374" lon="17.7393533">
        <ele>56.3745</ele>
        <time>2012-05-19T14:32:57Z</time>
      </trkpt>
      <trkpt lat="59.9870164" lon="17.7393994">
        <ele>55.4131</ele>
        <time>2012-05-19T14:32:59Z</time>
      </trkpt>
      <trkpt lat="59.9873212" lon="17.7394174">
        <ele>54.4518</ele>
        <time>2012-05-19T14:33:06Z</time>
      </trkpt>
      <trkpt lat="59.9877126" lon="17.7393693">
        <ele>54.4518</ele>
        <time>2012-05-19T14:33:14Z</time>
      </trkpt>
      <trkpt lat="59.9880935" lon="17.7393289">
        <ele>54.4518</ele>
        <time>2012-05-19T14:33:22Z</time>
      </trkpt>
      <trkpt lat="59.9884052" lon="17.7392091">
        <ele>56.3745</ele>
        <time>2012-05-19T14:33:29Z</time>
      </trkpt>
      <trkpt lat="59.9884931" lon="17.7391668">
        <ele>57.3358</ele>
        <time>2012-05-19T14:33:31Z</time>
      </trkpt>
      <trkpt lat="59.988842" lon="17.7389409">
        <ele>58.2971</ele>
        <time>2012-05-19T14:33:39Z</time>
      </trkpt>
      <trkpt lat="59.9890171" lon="17.7388124">
        <ele>55.8938</ele>
        <time>2012-05-19T14:33:43Z</time>
      </trkpt>
      <trkpt lat="59.9894848" lon="17.7385684">
        <ele>54.9324</ele>
        <time>2012-05-19T14:33:52Z</time>
      </trkpt>
      <trkpt lat="59.9897283" lon="17.7384805">
        <ele>53.0098</ele>
        <time>2012-05-19T14:33:56Z</time>
      </trkpt>
      <trkpt lat="59.9901" lon="17.7383395">
        <ele>51.0872</ele>
        <time>2012-05-19T14:34:02Z</time>
      </trkpt>
      <trkpt lat="59.9905359" lon="17.7381295">
        <ele>58.2971</ele>
        <time>2012-05-19T14:34:09Z</time>
      </trkpt>
      <trkpt lat="59.990855" lon="17.7379544">
        <ele>60.2197</ele>
        <time>2012-05-19T14:34:14Z</time>
      </trkpt>
      <trkpt lat="59.9912516" lon="17.7377361">
        <ele>63.1036</ele>
        <time>2012-05-19T14:34:20Z</time>
      </trkpt>
      <trkpt lat="59.9913153" lon="17.7377118">
        <ele>63.5844</ele>
        <time>2012-05-19T14:34:21Z</time>
      </trkpt>
      <trkpt lat="59.9918335" lon="17.7376726">
        <ele>63.5844</ele>
        <time>2012-05-19T14:34:29Z</time>
      </trkpt>
      <trkpt lat="59.9920899" lon="17.7375941">
        <ele>62.1423</ele>
        <time>2012-05-19T14:34:33Z</time>
      </trkpt>
      <trkpt lat="59.992516" lon="17.7373294">
        <ele>60.2197</ele>
        <time>2012-05-19T14:34:40Z</time>
      </trkpt>
      <trkpt lat="59.9926377" lon="17.7372091">
        <ele>60.2197</ele>
        <time>2012-05-19T14:34:42Z</time>
      </trkpt>
      <trkpt lat="59.9930182" lon="17.7365773">
        <ele>58.2971</ele>
        <time>2012-05-19T14:34:49Z</time>
      </trkpt>
      <trkpt lat="59.9933943" lon="17.7358687">
        <ele>55.8938</ele>
        <time>2012-05-19T14:34:56Z</time>
      </trkpt>
      <trkpt lat="59.9934552" lon="17.7357857">
        <ele>55.4131</ele>
        <time>2012-05-19T14:34:57Z</time>
      </trkpt>
      <trkpt lat="59.993728" lon="17.7356143">
        <ele>54.4518</ele>
        <time>2012-05-19T14:35:01Z</time>
      </trkpt>
      <trkpt lat="59.994247" lon="17.7356945">
        <ele>52.5292</ele>
        <time>2012-05-19T14:35:08Z</time>
      </trkpt>
      <trkpt lat="59.9946511" lon="17.7359078">
        <ele>50.6066</ele>
        <time>2012-05-19T14:35:13Z</time>
      </trkpt>
      <trkpt lat="59.9950761" lon="17.7361401">
        <ele>48.684</ele>
        <time>2012-05-19T14:35:19Z</time>
      </trkpt>
      <trkpt lat="59.995518" lon="17.7361862">
        <ele>47.7225</ele>
        <time>2012-05-19T14:35:25Z</time>
      </trkpt>
      <trkpt lat="59.9958802" lon="17.7361782">
        <ele>48.2034</ele>
        <time>2012-05-19T14:35:31Z</time>
      </trkpt>
      <trkpt lat="59.9960629" lon="17.736185">
        <ele>49.1646</ele>
        <time>2012-05-19T14:35:34Z</time>
      </trkpt>
      <trkpt lat="59.9964905" lon="17.736386">
        <ele>50.6066</ele>
        <time>2012-05-19T14:35:41Z</time>
      </trkpt>
      <trkpt lat="59.9966591" lon="17.7364905">
        <ele>50.126</ele>
        <time>2012-05-19T14:35:44Z</time>
      </trkpt>
      <trkpt lat="59.9969929" lon="17.7365934">
        <ele>51.5679</ele>
        <time>2012-05-19T14:35:50Z</time>
      </trkpt>
      <trkpt lat="59.9972991" lon="17.7366551">
        <ele>53.0098</ele>
        <time>2012-05-19T14:35:56Z</time>
      </trkpt>
      <trkpt lat="59.9975369" lon="17.7366986">
        <ele>53.9712</ele>
        <time>2012-05-19T14:36:01Z</time>
      </trkpt>
      <trkpt lat="59.9978382" lon="17.736724">
        <ele>55.4131</ele>
        <time>2012-05-19T14:36:07Z</time>
      </trkpt>
      <trkpt lat="59.9981615" lon="17.7367362">
        <ele>54.9324</ele>
        <time>2012-05-19T14:36:12Z</time>
      </trkpt>
      <trkpt lat="59.9985576" lon="17.7367939">
        <ele>54.4518</ele>
        <time>2012-05-19T14:36:17Z</time>
      </trkpt>
      <trkpt lat="59.9991825" lon="17.7368922">
        <ele>51.0872</ele>
        <time>2012-05-19T14:36:25Z</time>
      </trkpt>
      <trkpt lat="59.9995891" lon="17.7369036">
        <ele>53.4905</ele>
        <time>2012-05-19T14:36:31Z</time>
      </trkpt>
      <trkpt lat="59.9998185" lon="17.7369301">
        <ele>52.5292</ele>
        <time>2012-05-19T14:36:35Z</time>
      </trkpt>
      <trkpt lat="60.0001216" lon="17.7369445">
        <ele>52.0486</ele>
        <time>2012-05-19T14:36:40Z</time>
      </trkpt>
      <trkpt lat="60.0004284" lon="17.7368264">
        <ele>50.6066</ele>
        <time>2012-05-19T14:36:44Z</time>
      </trkpt>
      <trkpt lat="60.0010666" lon="17.7363947">
        <ele>51.0872</ele>
        <time>2012-05-19T14:36:52Z</time>
      </trkpt>
      <trkpt lat="60.0014441" lon="17.7361033">
        <ele>52.0486</ele>
        <time>2012-05-19T14:36:57Z</time>
      </trkpt>
      <trkpt lat="60.0018813" lon="17.7355592">
        <ele>51.5679</ele>
        <time>2012-05-19T14:37:03Z</time>
      </trkpt>
      <trkpt lat="60.0021655" lon="17.7347361">
        <ele>50.126</ele>
        <time>2012-05-19T14:37:08Z</time>
      </trkpt>
      <trkpt lat="60.0022811" lon="17.734039">
        <ele>47.2418</ele>
        <time>2012-05-19T14:37:12Z</time>
      </trkpt>
      <trkpt lat="60.0023007" lon="17.7332952">
        <ele>42.916</ele>
        <time>2012-05-19T14:37:16Z</time>
      </trkpt>
      <trkpt lat="60.0022787" lon="17.7328765">
        <ele>40.9934</ele>
        <time>2012-05-19T14:37:18Z</time>
      </trkpt>
      <trkpt lat="60.0023879" lon="17.7320448">
        <ele>37.6287</ele>
        <time>2012-05-19T14:37:22Z</time>
      </trkpt>
      <trkpt lat="60.0027933" lon="17.7308518">
        <ele>32.8223</ele>
        <time>2012-05-19T14:37:29Z</time>
      </trkpt>
      <trkpt lat="60.0031831" lon="17.7301887">
        <ele>31.3801</ele>
        <time>2012-05-19T14:37:34Z</time>
      </trkpt>
      <trkpt lat="60.0036021" lon="17.7294758">
        <ele>30.8995</ele>
        <time>2012-05-19T14:37:40Z</time>
      </trkpt>
      <trkpt lat="60.0038844" lon="17.7289611">
        <ele>31.8607</ele>
        <time>2012-05-19T14:37:45Z</time>
      </trkpt>
      <trkpt lat="60.0039679" lon="17.7287749">
        <ele>32.3416</ele>
        <time>2012-05-19T14:37:47Z</time>
      </trkpt>
      <trkpt lat="60.004044" lon="17.7285563">
        <ele>32.8223</ele>
        <time>2012-05-19T14:37:50Z</time>
      </trkpt>
      <trkpt lat="60.0041171" lon="17.7283606">
        <ele>30.8995</ele>
        <time>2012-05-19T14:37:54Z</time>
      </trkpt>
      <trkpt lat="60.0041429" lon="17.728378">
        <ele>31.3801</ele>
        <time>2012-05-19T14:37:55Z</time>
      </trkpt>
      <trkpt lat="60.0043717" lon="17.7283579">
        <ele>32.3416</ele>
        <time>2012-05-19T14:38:01Z</time>
      </trkpt>
      <trkpt lat="60.0045639" lon="17.7282289">
        <ele>31.8607</ele>
        <time>2012-05-19T14:38:04Z</time>
      </trkpt>
      <trkpt lat="60.0051602" lon="17.7280239">
        <ele>30.4188</ele>
        <time>2012-05-19T14:38:11Z</time>
      </trkpt>
      <trkpt lat="60.0052552" lon="17.7280167">
        <ele>30.4188</ele>
        <time>2012-05-19T14:38:12Z</time>
      </trkpt>
      <trkpt lat="60.0056165" lon="17.7280964">
        <ele>31.8607</ele>
        <time>2012-05-19T14:38:16Z</time>
      </trkpt>
      <trkpt lat="60.0059705" lon="17.7279327">
        <ele>32.8223</ele>
        <time>2012-05-19T14:38:20Z</time>
      </trkpt>
      <trkpt lat="60.0060472" lon="17.7278436">
        <ele>32.8223</ele>
        <time>2012-05-19T14:38:21Z</time>
      </trkpt>
      <trkpt lat="60.0064572" lon="17.7274095">
        <ele>33.3029</ele>
        <time>2012-05-19T14:38:26Z</time>
      </trkpt>
      <trkpt lat="60.006916" lon="17.7271624">
        <ele>31.3801</ele>
        <time>2012-05-19T14:38:31Z</time>
      </trkpt>
      <trkpt lat="60.0073786" lon="17.7268371">
        <ele>29.4575</ele>
        <time>2012-05-19T14:38:36Z</time>
      </trkpt>
      <trkpt lat="60.0077763" lon="17.7269029">
        <ele>27.5349</ele>
        <time>2012-05-19T14:38:40Z</time>
      </trkpt>
      <trkpt lat="60.0080846" lon="17.7272205">
        <ele>25.1317</ele>
        <time>2012-05-19T14:38:43Z</time>
      </trkpt>
      <trkpt lat="60.0081761" lon="17.7273587">
        <ele>25.1317</ele>
        <time>2012-05-19T14:38:44Z</time>
      </trkpt>
      <trkpt lat="60.0086676" lon="17.7280836">
        <ele>24.1703</ele>
        <time>2012-05-19T14:38:50Z</time>
      </trkpt>
      <trkpt lat="60.0087122" lon="17.7281372">
        <ele>24.1703</ele>
        <time>2012-05-19T14:38:51Z</time>
      </trkpt>
      <trkpt lat="60.0087344" lon="17.7280659">
        <ele>22.7283</ele>
        <time>2012-05-19T14:38:55Z</time>
      </trkpt>
      <trkpt lat="60.0086267" lon="17.7280032">
        <ele>21.2864</ele>
        <time>2012-05-19T14:38:59Z</time>
      </trkpt>
      <trkpt lat="60.0085664" lon="17.7279414">
        <ele>20.325</ele>
        <time>2012-05-19T14:39:02Z</time>
      </trkpt>
      <trkpt lat="60.0085664" lon="17.7279012">
        <ele>20.8057</ele>
        <time>2012-05-19T14:39:06Z</time>
      </trkpt>
      <trkpt lat="60.0101266" lon="17.7313828">
        <ele>30.4188</ele>
        <time>2012-05-19T14:40:19Z</time>
      </trkpt>
      <trkpt lat="60.010401" lon="17.73181">
        <ele>30.8995</ele>
        <time>2012-05-19T14:40:24Z</time>
      </trkpt>
      <trkpt lat="60.0105595" lon="17.7321535">
        <ele>31.3801</ele>
        <time>2012-05-19T14:40:28Z</time>
      </trkpt>
      <trkpt lat="60.0108556" lon="17.7325475">
        <ele>29.4575</ele>
        <time>2012-05-19T14:40:34Z</time>
      </trkpt>
      <trkpt lat="60.0112866" lon="17.7328144">
        <ele>28.9769</ele>
        <time>2012-05-19T14:40:41Z</time>
      </trkpt>
      <trkpt lat="60.0117853" lon="17.7328925">
        <ele>28.0155</ele>
        <time>2012-05-19T14:40:48Z</time>
      </trkpt>
      <trkpt lat="60.0122369" lon="17.7327814">
        <ele>26.0929</ele>
        <time>2012-05-19T14:40:54Z</time>
      </trkpt>
      <trkpt lat="60.0128192" lon="17.7325958">
        <ele>24.1703</ele>
        <time>2012-05-19T14:41:01Z</time>
      </trkpt>
      <trkpt lat="60.0133729" lon="17.7325314">
        <ele>22.2476</ele>
        <time>2012-05-19T14:41:07Z</time>
      </trkpt>
      <trkpt lat="60.0139567" lon="17.7326545">
        <ele>21.767</ele>
        <time>2012-05-19T14:41:13Z</time>
      </trkpt>
      <trkpt lat="60.0145586" lon="17.7330227">
        <ele>21.2864</ele>
        <time>2012-05-19T14:41:20Z</time>
      </trkpt>
      <trkpt lat="60.0150541" lon="17.7333775">
        <ele>21.2864</ele>
        <time>2012-05-19T14:41:26Z</time>
      </trkpt>
      <trkpt lat="60.0156558" lon="17.7335463">
        <ele>21.767</ele>
        <time>2012-05-19T14:41:33Z</time>
      </trkpt>
      <trkpt lat="60.0162908" lon="17.7337024">
        <ele>22.7283</ele>
        <time>2012-05-19T14:41:41Z</time>
      </trkpt>
      <trkpt lat="60.0170626" lon="17.7339447">
        <ele>23.6896</ele>
        <time>2012-05-19T14:41:51Z</time>
      </trkpt>
      <trkpt lat="60.0172168" lon="17.7339607">
        <ele>23.6896</ele>
        <time>2012-05-19T14:41:53Z</time>
      </trkpt>
      <trkpt lat="60.0177498" lon="17.7342294">
        <ele>25.6123</ele>
        <time>2012-05-19T14:42:00Z</time>
      </trkpt>
      <trkpt lat="60.0182101" lon="17.7346444">
        <ele>29.4575</ele>
        <time>2012-05-19T14:42:07Z</time>
      </trkpt>
      <trkpt lat="60.0186424" lon="17.7350678">
        <ele>29.4575</ele>
        <time>2012-05-19T14:42:14Z</time>
      </trkpt>
      <trkpt lat="60.0190149" lon="17.7355568">
        <ele>29.9381</ele>
        <time>2012-05-19T14:42:20Z</time>
      </trkpt>
      <trkpt lat="60.0195086" lon="17.7363058">
        <ele>28.9769</ele>
        <time>2012-05-19T14:42:28Z</time>
      </trkpt>
      <trkpt lat="60.0198986" lon="17.7368822">
        <ele>27.5349</ele>
        <time>2012-05-19T14:42:34Z</time>
      </trkpt>
      <trkpt lat="60.020141" lon="17.7375401">
        <ele>30.4188</ele>
        <time>2012-05-19T14:42:39Z</time>
      </trkpt>
      <trkpt lat="60.0204178" lon="17.7384535">
        <ele>29.9381</ele>
        <time>2012-05-19T14:42:46Z</time>
      </trkpt>
      <trkpt lat="60.0207422" lon="17.7391068">
        <ele>30.4188</ele>
        <time>2012-05-19T14:42:52Z</time>
      </trkpt>
      <trkpt lat="60.0211875" lon="17.739715">
        <ele>30.8995</ele>
        <time>2012-05-19T14:42:59Z</time>
      </trkpt>
      <trkpt lat="60.0217181" lon="17.7403228">
        <ele>31.3801</ele>
        <time>2012-05-19T14:43:07Z</time>
      </trkpt>
      <trkpt lat="60.02215" lon="17.7407484">
        <ele>27.5349</ele>
        <time>2012-05-19T14:43:14Z</time>
      </trkpt>
      <trkpt lat="60.022406" lon="17.7411062">
        <ele>28.0155</ele>
        <time>2012-05-19T14:43:19Z</time>
      </trkpt>
      <trkpt lat="60.0226257" lon="17.7411901">
        <ele>28.0155</ele>
        <time>2012-05-19T14:43:23Z</time>
      </trkpt>
      <trkpt lat="60.0227007" lon="17.740812">
        <ele>26.0929</ele>
        <time>2012-05-19T14:43:26Z</time>
      </trkpt>
      <trkpt lat="60.022712" lon="17.740675">
        <ele>26.0929</ele>
        <time>2012-05-19T14:43:27Z</time>
      </trkpt>
      <trkpt lat="60.0228037" lon="17.7395974">
        <ele>31.8607</ele>
        <time>2012-05-19T14:43:34Z</time>
      </trkpt>
      <trkpt lat="60.0229052" lon="17.738508">
        <ele>35.7061</ele>
        <time>2012-05-19T14:43:41Z</time>
      </trkpt>
      <trkpt lat="60.0230111" lon="17.7372942">
        <ele>37.1481</ele>
        <time>2012-05-19T14:43:48Z</time>
      </trkpt>
      <trkpt lat="60.0231399" lon="17.7355755">
        <ele>35.2255</ele>
        <time>2012-05-19T14:43:58Z</time>
      </trkpt>
      <trkpt lat="60.0232183" lon="17.7345421">
        <ele>28.9769</ele>
        <time>2012-05-19T14:44:05Z</time>
      </trkpt>
      <trkpt lat="60.0233393" lon="17.7333035">
        <ele>22.7283</ele>
        <time>2012-05-19T14:44:14Z</time>
      </trkpt>
      <trkpt lat="60.0233165" lon="17.7325968">
        <ele>17.4412</ele>
        <time>2012-05-19T14:44:19Z</time>
      </trkpt>
      <trkpt lat="60.0232544" lon="17.7322068">
        <ele>15.0377</ele>
        <time>2012-05-19T14:44:22Z</time>
      </trkpt>
      <trkpt lat="60.0231898" lon="17.7319665">
        <ele>13.1151</ele>
        <time>2012-05-19T14:44:24Z</time>
      </trkpt>
      <trkpt lat="60.0229218" lon="17.7312936">
        <ele>7.34717</ele>
        <time>2012-05-19T14:44:30Z</time>
      </trkpt>
      <trkpt lat="60.0225644" lon="17.7304849">
        <ele>3.50195</ele>
        <time>2012-05-19T14:44:37Z</time>
      </trkpt>
      <trkpt lat="60.0225236" lon="17.7303455">
        <ele>3.50195</ele>
        <time>2012-05-19T14:44:38Z</time>
      </trkpt>
      <trkpt lat="60.0224104" lon="17.7298188">
        <ele>3.50195</ele>
        <time>2012-05-19T14:44:41Z</time>
      </trkpt>
      <trkpt lat="60.0223865" lon="17.7294981">
        <ele>4.46326</ele>
        <time>2012-05-19T14:44:43Z</time>
      </trkpt>
      <trkpt lat="60.0223739" lon="17.7291552">
        <ele>6.38586</ele>
        <time>2012-05-19T14:44:45Z</time>
      </trkpt>
      <trkpt lat="60.0224049" lon="17.7284238">
        <ele>10.2312</ele>
        <time>2012-05-19T14:44:51Z</time>
      </trkpt>
      <trkpt lat="60.0224344" lon="17.7279841">
        <ele>10.2312</ele>
        <time>2012-05-19T14:44:56Z</time>
      </trkpt>
      <trkpt lat="60.022455" lon="17.7273482">
        <ele>11.6732</ele>
        <time>2012-05-19T14:45:04Z</time>
      </trkpt>
      <trkpt lat="60.0224603" lon="17.7268491">
        <ele>14.557</ele>
        <time>2012-05-19T14:45:09Z</time>
      </trkpt>
      <trkpt lat="60.0224451" lon="17.7261469">
        <ele>18.4023</ele>
        <time>2012-05-19T14:45:15Z</time>
      </trkpt>
      <trkpt lat="60.0223867" lon="17.7252075">
        <ele>20.325</ele>
        <time>2012-05-19T14:45:22Z</time>
      </trkpt>
      <trkpt lat="60.0222894" lon="17.7241911">
        <ele>20.8057</ele>
        <time>2012-05-19T14:45:30Z</time>
      </trkpt>
      <trkpt lat="60.022183" lon="17.7231927">
        <ele>22.2476</ele>
        <time>2012-05-19T14:45:38Z</time>
      </trkpt>
      <trkpt lat="60.0221324" lon="17.7226926">
        <ele>24.651</ele>
        <time>2012-05-19T14:45:43Z</time>
      </trkpt>
      <trkpt lat="60.0221003" lon="17.7223979">
        <ele>25.6123</ele>
        <time>2012-05-19T14:45:46Z</time>
      </trkpt>
      <trkpt lat="60.0219157" lon="17.721829">
        <ele>24.1703</ele>
        <time>2012-05-19T14:45:52Z</time>
      </trkpt>
      <trkpt lat="60.0216929" lon="17.7215829">
        <ele>23.6896</ele>
        <time>2012-05-19T14:45:56Z</time>
      </trkpt>
      <trkpt lat="60.0215077" lon="17.7215058">
        <ele>24.1703</ele>
        <time>2012-05-19T14:45:59Z</time>
      </trkpt>
      <trkpt lat="60.0209296" lon="17.7213691">
        <ele>27.0543</ele>
        <time>2012-05-19T14:46:08Z</time>
      </trkpt>
      <trkpt lat="60.0203132" lon="17.7212349">
        <ele>25.6123</ele>
        <time>2012-05-19T14:46:18Z</time>
      </trkpt>
      <trkpt lat="60.0197771" lon="17.7210955">
        <ele>22.7283</ele>
        <time>2012-05-19T14:46:26Z</time>
      </trkpt>
      <trkpt lat="60.0192827" lon="17.7209622">
        <ele>19.8444</ele>
        <time>2012-05-19T14:46:33Z</time>
      </trkpt>
      <trkpt lat="60.0185201" lon="17.7207301">
        <ele>18.8831</ele>
        <time>2012-05-19T14:46:44Z</time>
      </trkpt>
      <trkpt lat="60.0179262" lon="17.7205645">
        <ele>20.8057</ele>
        <time>2012-05-19T14:46:53Z</time>
      </trkpt>
      <trkpt lat="60.0174684" lon="17.7204711">
        <ele>22.2476</ele>
        <time>2012-05-19T14:47:01Z</time>
      </trkpt>
      <trkpt lat="60.0170606" lon="17.7204649">
        <ele>22.7283</ele>
        <time>2012-05-19T14:47:09Z</time>
      </trkpt>
      <trkpt lat="60.0169735" lon="17.7204667">
        <ele>23.6896</ele>
        <time>2012-05-19T14:47:11Z</time>
      </trkpt>
      <trkpt lat="60.0168331" lon="17.7202733">
        <ele>24.651</ele>
        <time>2012-05-19T14:47:15Z</time>
      </trkpt>
      <trkpt lat="60.0168336" lon="17.7199274">
        <ele>24.1703</ele>
        <time>2012-05-19T14:47:18Z</time>
      </trkpt>
      <trkpt lat="60.0169001" lon="17.7189058">
        <ele>21.2864</ele>
        <time>2012-05-19T14:47:25Z</time>
      </trkpt>
      <trkpt lat="60.0169751" lon="17.7177652">
        <ele>18.4023</ele>
        <time>2012-05-19T14:47:32Z</time>
      </trkpt>
      <trkpt lat="60.0171108" lon="17.7168199">
        <ele>15.999</ele>
        <time>2012-05-19T14:47:38Z</time>
      </trkpt>
      <trkpt lat="60.0173298" lon="17.715803">
        <ele>11.6732</ele>
        <time>2012-05-19T14:47:45Z</time>
      </trkpt>
      <trkpt lat="60.017533" lon="17.7148974">
        <ele>9.75061</ele>
        <time>2012-05-19T14:47:52Z</time>
      </trkpt>
      <trkpt lat="60.017644" lon="17.7140833">
        <ele>6.38586</ele>
        <time>2012-05-19T14:47:59Z</time>
      </trkpt>
      <trkpt lat="60.0176878" lon="17.713341">
        <ele>2.06006</ele>
        <time>2012-05-19T14:48:06Z</time>
      </trkpt>
      <trkpt lat="60.017748" lon="17.7123503">
        <ele>2.06006</ele>
        <time>2012-05-19T14:48:16Z</time>
      </trkpt>
      <trkpt lat="60.017807" lon="17.7114463">
        <ele>3.02124</ele>
        <time>2012-05-19T14:48:26Z</time>
      </trkpt>
      <trkpt lat="60.0178671" lon="17.7106416">
        <ele>4.46326</ele>
        <time>2012-05-19T14:48:36Z</time>
      </trkpt>
      <trkpt lat="60.0179158" lon="17.7099762">
        <ele>5.90527</ele>
        <time>2012-05-19T14:48:44Z</time>
      </trkpt>
      <trkpt lat="60.0179819" lon="17.7090367">
        <ele>7.34717</ele>
        <time>2012-05-19T14:48:54Z</time>
      </trkpt>
      <trkpt lat="60.018047" lon="17.7080484">
        <ele>8.78918</ele>
        <time>2012-05-19T14:49:04Z</time>
      </trkpt>
      <trkpt lat="60.0180914" lon="17.7074018">
        <ele>9.75061</ele>
        <time>2012-05-19T14:49:11Z</time>
      </trkpt>
      <trkpt lat="60.0180961" lon="17.7071065">
        <ele>12.1538</ele>
        <time>2012-05-19T14:49:15Z</time>
      </trkpt>
      <trkpt lat="60.018182" lon="17.7066207">
        <ele>15.5184</ele>
        <time>2012-05-19T14:49:22Z</time>
      </trkpt>
      <trkpt lat="60.0183349" lon="17.7059012">
        <ele>19.8444</ele>
        <time>2012-05-19T14:49:32Z</time>
      </trkpt>
      <trkpt lat="60.0184804" lon="17.7053063">
        <ele>19.8444</ele>
        <time>2012-05-19T14:49:41Z</time>
      </trkpt>
      <trkpt lat="60.0184331" lon="17.7052573">
        <ele>19.8444</ele>
        <time>2012-05-19T14:49:44Z</time>
      </trkpt>
      <trkpt lat="60.0183873" lon="17.7053894">
        <ele>18.4023</ele>
        <time>2012-05-19T14:49:47Z</time>
      </trkpt>
      <trkpt lat="60.0182462" lon="17.7058417">
        <ele>17.4412</ele>
        <time>2012-05-19T14:49:56Z</time>
      </trkpt>
      <trkpt lat="60.0181431" lon="17.7063224">
        <ele>16.9604</ele>
        <time>2012-05-19T14:50:03Z</time>
      </trkpt>
      <trkpt lat="60.0180509" lon="17.7069456">
        <ele>17.9218</ele>
        <time>2012-05-19T14:50:10Z</time>
      </trkpt>
      <trkpt lat="60.0179914" lon="17.7076327">
        <ele>17.4412</ele>
        <time>2012-05-19T14:50:18Z</time>
      </trkpt>
      <trkpt lat="60.0179425" lon="17.7083633">
        <ele>16.9604</ele>
        <time>2012-05-19T14:50:25Z</time>
      </trkpt>
      <trkpt lat="60.0178708" lon="17.7094133">
        <ele>15.999</ele>
        <time>2012-05-19T14:50:35Z</time>
      </trkpt>
      <trkpt lat="60.0178122" lon="17.7103426">
        <ele>14.557</ele>
        <time>2012-05-19T14:50:43Z</time>
      </trkpt>
      <trkpt lat="60.0177489" lon="17.7113465">
        <ele>12.6344</ele>
        <time>2012-05-19T14:50:52Z</time>
      </trkpt>
      <trkpt lat="60.0176899" lon="17.7123204">
        <ele>11.6732</ele>
        <time>2012-05-19T14:50:59Z</time>
      </trkpt>
      <trkpt lat="60.0175924" lon="17.7137512">
        <ele>10.2312</ele>
        <time>2012-05-19T14:51:08Z</time>
      </trkpt>
      <trkpt lat="60.0174761" lon="17.7146969">
        <ele>9.75061</ele>
        <time>2012-05-19T14:51:14Z</time>
      </trkpt>
      <trkpt lat="60.0172356" lon="17.7158587">
        <ele>11.6732</ele>
        <time>2012-05-19T14:51:22Z</time>
      </trkpt>
      <trkpt lat="60.0169684" lon="17.7168619">
        <ele>5.42456</ele>
        <time>2012-05-19T14:51:30Z</time>
      </trkpt>
      <trkpt lat="60.0168798" lon="17.7175792">
        <ele>8.30859</ele>
        <time>2012-05-19T14:51:36Z</time>
      </trkpt>
      <trkpt lat="60.0168404" lon="17.7182817">
        <ele>11.1925</ele>
        <time>2012-05-19T14:51:43Z</time>
      </trkpt>
      <trkpt lat="60.016816" lon="17.7189504">
        <ele>11.1925</ele>
        <time>2012-05-19T14:51:51Z</time>
      </trkpt>
      <trkpt lat="60.0167967" lon="17.7197352">
        <ele>15.999</ele>
        <time>2012-05-19T14:52:01Z</time>
      </trkpt>
      <trkpt lat="60.0168151" lon="17.7202915">
        <ele>15.0377</ele>
        <time>2012-05-19T14:52:09Z</time>
      </trkpt>
      <trkpt lat="60.0169036" lon="17.7205474">
        <ele>19.8444</ele>
        <time>2012-05-19T14:52:13Z</time>
      </trkpt>
      <trkpt lat="60.0171093" lon="17.7206194">
        <ele>22.7283</ele>
        <time>2012-05-19T14:52:18Z</time>
      </trkpt>
      <trkpt lat="60.017447" lon="17.7206532">
        <ele>24.1703</ele>
        <time>2012-05-19T14:52:24Z</time>
      </trkpt>
      <trkpt lat="60.0179892" lon="17.7207702">
        <ele>24.1703</ele>
        <time>2012-05-19T14:52:32Z</time>
      </trkpt>
      <trkpt lat="60.0185746" lon="17.7209371">
        <ele>23.6896</ele>
        <time>2012-05-19T14:52:40Z</time>
      </trkpt>
      <trkpt lat="60.0191081" lon="17.721096">
        <ele>24.1703</ele>
        <time>2012-05-19T14:52:48Z</time>
      </trkpt>
      <trkpt lat="60.0197988" lon="17.7212839">
        <ele>24.651</ele>
        <time>2012-05-19T14:52:58Z</time>
      </trkpt>
      <trkpt lat="60.020382" lon="17.7214455">
        <ele>25.1317</ele>
        <time>2012-05-19T14:53:07Z</time>
      </trkpt>
      <trkpt lat="60.020905" lon="17.7215679">
        <ele>23.6896</ele>
        <time>2012-05-19T14:53:15Z</time>
      </trkpt>
      <trkpt lat="60.021508" lon="17.7217301">
        <ele>22.2476</ele>
        <time>2012-05-19T14:53:23Z</time>
      </trkpt>
      <trkpt lat="60.0215859" lon="17.7217653">
        <ele>22.2476</ele>
        <time>2012-05-19T14:53:24Z</time>
      </trkpt>
      <trkpt lat="60.0218748" lon="17.7220598">
        <ele>22.2476</ele>
        <time>2012-05-19T14:53:28Z</time>
      </trkpt>
      <trkpt lat="60.0220034" lon="17.7224532">
        <ele>21.2864</ele>
        <time>2012-05-19T14:53:31Z</time>
      </trkpt>
      <trkpt lat="60.0220257" lon="17.7226019">
        <ele>21.2864</ele>
        <time>2012-05-19T14:53:32Z</time>
      </trkpt>
      <trkpt lat="60.0221755" lon="17.7242139">
        <ele>18.8831</ele>
        <time>2012-05-19T14:53:42Z</time>
      </trkpt>
      <trkpt lat="60.0222985" lon="17.7257025">
        <ele>18.8831</ele>
        <time>2012-05-19T14:53:51Z</time>
      </trkpt>
      <trkpt lat="60.0223541" lon="17.7268266">
        <ele>17.9218</ele>
        <time>2012-05-19T14:53:58Z</time>
      </trkpt>
      <trkpt lat="60.0223576" lon="17.7276829">
        <ele>17.4412</ele>
        <time>2012-05-19T14:54:04Z</time>
      </trkpt>
      <trkpt lat="60.0223084" lon="17.7284585">
        <ele>13.5958</ele>
        <time>2012-05-19T14:54:09Z</time>
      </trkpt>
      <trkpt lat="60.0222864" lon="17.7294233">
        <ele>10.7118</ele>
        <time>2012-05-19T14:54:14Z</time>
      </trkpt>
      <trkpt lat="60.0223655" lon="17.7301802">
        <ele>8.78918</ele>
        <time>2012-05-19T14:54:18Z</time>
      </trkpt>
      <trkpt lat="60.0226099" lon="17.7309445">
        <ele>12.6344</ele>
        <time>2012-05-19T14:54:23Z</time>
      </trkpt>
      <trkpt lat="60.0229612" lon="17.7317218">
        <ele>16.9604</ele>
        <time>2012-05-19T14:54:30Z</time>
      </trkpt>
      <trkpt lat="60.0231805" lon="17.7323279">
        <ele>17.4412</ele>
        <time>2012-05-19T14:54:36Z</time>
      </trkpt>
      <trkpt lat="60.0232259" lon="17.7325581">
        <ele>17.4412</ele>
        <time>2012-05-19T14:54:38Z</time>
      </trkpt>
      <trkpt lat="60.0232464" lon="17.7333345">
        <ele>17.4412</ele>
        <time>2012-05-19T14:54:44Z</time>
      </trkpt>
      <trkpt lat="60.0232325" lon="17.7334706">
        <ele>17.4412</ele>
        <time>2012-05-19T14:54:45Z</time>
      </trkpt>
      <trkpt lat="60.0230574" lon="17.7348852">
        <ele>18.8831</ele>
        <time>2012-05-19T14:54:55Z</time>
      </trkpt>
      <trkpt lat="60.0229619" lon="17.7360795">
        <ele>20.325</ele>
        <time>2012-05-19T14:55:03Z</time>
      </trkpt>
      <trkpt lat="60.0228585" lon="17.7372855">
        <ele>20.325</ele>
        <time>2012-05-19T14:55:12Z</time>
      </trkpt>
      <trkpt lat="60.0227934" lon="17.7382458">
        <ele>24.651</ele>
        <time>2012-05-19T14:55:20Z</time>
      </trkpt>
      <trkpt lat="60.0227331" lon="17.7391887">
        <ele>28.9769</ele>
        <time>2012-05-19T14:55:29Z</time>
      </trkpt>
      <trkpt lat="60.0226122" lon="17.7400577">
        <ele>19.3638</ele>
        <time>2012-05-19T14:55:39Z</time>
      </trkpt>
      <trkpt lat="60.0225276" lon="17.7408575">
        <ele>15.5184</ele>
        <time>2012-05-19T14:55:49Z</time>
      </trkpt>
      <trkpt lat="60.0224987" lon="17.7410705">
        <ele>14.557</ele>
        <time>2012-05-19T14:55:52Z</time>
      </trkpt>
      <trkpt lat="60.0223596" lon="17.7410827">
        <ele>13.5958</ele>
        <time>2012-05-19T14:55:56Z</time>
      </trkpt>
      <trkpt lat="60.0223298" lon="17.7410306">
        <ele>13.5958</ele>
        <time>2012-05-19T14:55:57Z</time>
      </trkpt>
      <trkpt lat="60.0222653" lon="17.7409063">
        <ele>15.0377</ele>
        <time>2012-05-19T14:55:59Z</time>
      </trkpt>
      <trkpt lat="60.0219445" lon="17.7404799">
        <ele>16.4797</ele>
        <time>2012-05-19T14:56:07Z</time>
      </trkpt>
      <trkpt lat="60.0215439" lon="17.7400612">
        <ele>20.325</ele>
        <time>2012-05-19T14:56:16Z</time>
      </trkpt>
      <trkpt lat="60.0211236" lon="17.7395939">
        <ele>18.8831</ele>
        <time>2012-05-19T14:56:25Z</time>
      </trkpt>
      <trkpt lat="60.0207292" lon="17.7390679">
        <ele>20.325</ele>
        <time>2012-05-19T14:56:33Z</time>
      </trkpt>
      <trkpt lat="60.0203913" lon="17.7384031">
        <ele>24.1703</ele>
        <time>2012-05-19T14:56:41Z</time>
      </trkpt>
      <trkpt lat="60.0201717" lon="17.73769">
        <ele>27.0543</ele>
        <time>2012-05-19T14:56:48Z</time>
      </trkpt>
      <trkpt lat="60.0199418" lon="17.7368741">
        <ele>28.4962</ele>
        <time>2012-05-19T14:56:56Z</time>
      </trkpt>
      <trkpt lat="60.0196496" lon="17.7364156">
        <ele>27.5349</ele>
        <time>2012-05-19T14:57:02Z</time>
      </trkpt>
      <trkpt lat="60.0195418" lon="17.7362846">
        <ele>27.0543</ele>
        <time>2012-05-19T14:57:04Z</time>
      </trkpt>
      <trkpt lat="60.0190207" lon="17.7355007">
        <ele>26.0929</ele>
        <time>2012-05-19T14:57:15Z</time>
      </trkpt>
      <trkpt lat="60.0185408" lon="17.734875">
        <ele>24.1703</ele>
        <time>2012-05-19T14:57:25Z</time>
      </trkpt>
      <trkpt lat="60.0181955" lon="17.7345477">
        <ele>22.7283</ele>
        <time>2012-05-19T14:57:32Z</time>
      </trkpt>
      <trkpt lat="60.0177863" lon="17.7341069">
        <ele>18.8831</ele>
        <time>2012-05-19T14:57:40Z</time>
      </trkpt>
      <trkpt lat="60.0174573" lon="17.7338813">
        <ele>16.9604</ele>
        <time>2012-05-19T14:57:46Z</time>
      </trkpt>
      <trkpt lat="60.0169923" lon="17.7337185">
        <ele>19.3638</ele>
        <time>2012-05-19T14:57:54Z</time>
      </trkpt>
      <trkpt lat="60.016576" lon="17.7335591">
        <ele>23.209</ele>
        <time>2012-05-19T14:58:01Z</time>
      </trkpt>
      <trkpt lat="60.0160065" lon="17.7333853">
        <ele>26.0929</ele>
        <time>2012-05-19T14:58:10Z</time>
      </trkpt>
      <trkpt lat="60.0154719" lon="17.733291">
        <ele>23.6896</ele>
        <time>2012-05-19T14:58:18Z</time>
      </trkpt>
      <trkpt lat="60.0150033" lon="17.7331413">
        <ele>24.651</ele>
        <time>2012-05-19T14:58:25Z</time>
      </trkpt>
      <trkpt lat="60.0145086" lon="17.7327859">
        <ele>21.767</ele>
        <time>2012-05-19T14:58:33Z</time>
      </trkpt>
      <trkpt lat="60.014211" lon="17.7326255">
        <ele>21.2864</ele>
        <time>2012-05-19T14:58:38Z</time>
      </trkpt>
      <trkpt lat="60.0137862" lon="17.7324047">
        <ele>21.2864</ele>
        <time>2012-05-19T14:58:45Z</time>
      </trkpt>
      <trkpt lat="60.0134289" lon="17.7322996">
        <ele>21.2864</ele>
        <time>2012-05-19T14:58:51Z</time>
      </trkpt>
      <trkpt lat="60.0130817" lon="17.7322685">
        <ele>20.325</ele>
        <time>2012-05-19T14:58:58Z</time>
      </trkpt>
      <trkpt lat="60.012722" lon="17.7323638">
        <ele>24.651</ele>
        <time>2012-05-19T14:59:06Z</time>
      </trkpt>
      <trkpt lat="60.0123005" lon="17.7324911">
        <ele>23.6896</ele>
        <time>2012-05-19T14:59:14Z</time>
      </trkpt>
      <trkpt lat="60.0119168" lon="17.7326419">
        <ele>27.5349</ele>
        <time>2012-05-19T14:59:22Z</time>
      </trkpt>
      <trkpt lat="60.0116593" lon="17.7326597">
        <ele>28.4962</ele>
        <time>2012-05-19T14:59:27Z</time>
      </trkpt>
      <trkpt lat="60.0115628" lon="17.7326186">
        <ele>29.4575</ele>
        <time>2012-05-19T14:59:29Z</time>
      </trkpt>
      <trkpt lat="60.0111728" lon="17.7325267">
        <ele>31.8607</ele>
        <time>2012-05-19T14:59:36Z</time>
      </trkpt>
      <trkpt lat="60.0107808" lon="17.7322703">
        <ele>28.4962</ele>
        <time>2012-05-19T14:59:43Z</time>
      </trkpt>
      <trkpt lat="60.0104368" lon="17.7318569">
        <ele>27.5349</ele>
        <time>2012-05-19T14:59:50Z</time>
      </trkpt>
      <trkpt lat="60.010148" lon="17.7313433">
        <ele>26.5736</ele>
        <time>2012-05-19T14:59:57Z</time>
      </trkpt>
      <trkpt lat="60.0098758" lon="17.7309833">
        <ele>26.0929</ele>
        <time>2012-05-19T15:00:03Z</time>
      </trkpt>
      <trkpt lat="60.0096518" lon="17.7304859">
        <ele>25.6123</ele>
        <time>2012-05-19T15:00:10Z</time>
      </trkpt>
      <trkpt lat="60.0094365" lon="17.729869">
        <ele>23.209</ele>
        <time>2012-05-19T15:00:17Z</time>
      </trkpt>
      <trkpt lat="60.0091759" lon="17.7291258">
        <ele>20.8057</ele>
        <time>2012-05-19T15:00:24Z</time>
      </trkpt>
      <trkpt lat="60.008932" lon="17.728376">
        <ele>19.8444</ele>
        <time>2012-05-19T15:00:31Z</time>
      </trkpt>
      <trkpt lat="60.0087071" lon="17.7279742">
        <ele>20.325</ele>
        <time>2012-05-19T15:00:36Z</time>
      </trkpt>
      <trkpt lat="60.0082636" lon="17.7273899">
        <ele>21.767</ele>
        <time>2012-05-19T15:00:44Z</time>
      </trkpt>
      <trkpt lat="60.0078795" lon="17.7268797">
        <ele>23.6896</ele>
        <time>2012-05-19T15:00:51Z</time>
      </trkpt>
      <trkpt lat="60.0077473" lon="17.7267781">
        <ele>23.209</ele>
        <time>2012-05-19T15:00:53Z</time>
      </trkpt>
      <trkpt lat="60.0074402" lon="17.7267408">
        <ele>23.6896</ele>
        <time>2012-05-19T15:00:58Z</time>
      </trkpt>
      <trkpt lat="60.0072583" lon="17.7268174">
        <ele>22.7283</ele>
        <time>2012-05-19T15:01:02Z</time>
      </trkpt>
      <trkpt lat="60.0070651" lon="17.726978">
        <ele>22.2476</ele>
        <time>2012-05-19T15:01:07Z</time>
      </trkpt>
      <trkpt lat="60.0069458" lon="17.7270697">
        <ele>20.325</ele>
        <time>2012-05-19T15:01:10Z</time>
      </trkpt>
      <trkpt lat="60.0066817" lon="17.7272122">
        <ele>15.0377</ele>
        <time>2012-05-19T15:01:16Z</time>
      </trkpt>
      <trkpt lat="60.0065463" lon="17.7272876">
        <ele>15.999</ele>
        <time>2012-05-19T15:01:20Z</time>
      </trkpt>
      <trkpt lat="60.0062305" lon="17.7274884">
        <ele>15.0377</ele>
        <time>2012-05-19T15:01:29Z</time>
      </trkpt>
      <trkpt lat="60.0060602" lon="17.7277364">
        <ele>17.9218</ele>
        <time>2012-05-19T15:01:35Z</time>
      </trkpt>
      <trkpt lat="60.0058218" lon="17.7280027">
        <ele>18.8831</ele>
        <time>2012-05-19T15:01:42Z</time>
      </trkpt>
      <trkpt lat="60.0055556" lon="17.7280069">
        <ele>18.8831</ele>
        <time>2012-05-19T15:01:48Z</time>
      </trkpt>
      <trkpt lat="60.0053946" lon="17.7279605">
        <ele>20.8057</ele>
        <time>2012-05-19T15:01:51Z</time>
      </trkpt>
      <trkpt lat="60.0050361" lon="17.7279753">
        <ele>17.9218</ele>
        <time>2012-05-19T15:01:58Z</time>
      </trkpt>
      <trkpt lat="60.0047642" lon="17.7280499">
        <ele>18.4023</ele>
        <time>2012-05-19T15:02:04Z</time>
      </trkpt>
      <trkpt lat="60.0044916" lon="17.7281855">
        <ele>18.4023</ele>
        <time>2012-05-19T15:02:10Z</time>
      </trkpt>
      <trkpt lat="60.0042797" lon="17.7283193">
        <ele>18.8831</ele>
        <time>2012-05-19T15:02:15Z</time>
      </trkpt>
      <trkpt lat="60.0042032" lon="17.7283431">
        <ele>18.4023</ele>
        <time>2012-05-19T15:02:17Z</time>
      </trkpt>
      <trkpt lat="60.0040747" lon="17.7283228">
        <ele>22.7283</ele>
        <time>2012-05-19T15:02:22Z</time>
      </trkpt>
      <trkpt lat="60.0040052" lon="17.7283321">
        <ele>23.6896</ele>
        <time>2012-05-19T15:02:26Z</time>
      </trkpt>
      <trkpt lat="60.0039617" lon="17.72846">
        <ele>24.1703</ele>
        <time>2012-05-19T15:02:29Z</time>
      </trkpt>
      <trkpt lat="60.0038445" lon="17.7288289">
        <ele>25.1317</ele>
        <time>2012-05-19T15:02:35Z</time>
      </trkpt>
      <trkpt lat="60.0036211" lon="17.7292914">
        <ele>27.0543</ele>
        <time>2012-05-19T15:02:42Z</time>
      </trkpt>
      <trkpt lat="60.0032165" lon="17.7299995">
        <ele>28.4962</ele>
        <time>2012-05-19T15:02:53Z</time>
      </trkpt>
      <trkpt lat="60.0028952" lon="17.7305203">
        <ele>28.4962</ele>
        <time>2012-05-19T15:03:01Z</time>
      </trkpt>
      <trkpt lat="60.0026226" lon="17.7311619">
        <ele>33.7834</ele>
        <time>2012-05-19T15:03:09Z</time>
      </trkpt>
      <trkpt lat="60.0024116" lon="17.7318673">
        <ele>36.1868</ele>
        <time>2012-05-19T15:03:17Z</time>
      </trkpt>
      <trkpt lat="60.0022969" lon="17.7324151">
        <ele>38.5901</ele>
        <time>2012-05-19T15:03:23Z</time>
      </trkpt>
      <trkpt lat="60.0022858" lon="17.7324881">
        <ele>38.1094</ele>
        <time>2012-05-19T15:03:24Z</time>
      </trkpt>
      <trkpt lat="60.0022407" lon="17.7329004">
        <ele>43.3966</ele>
        <time>2012-05-19T15:03:29Z</time>
      </trkpt>
      <trkpt lat="60.0022439" lon="17.7333419">
        <ele>46.7612</ele>
        <time>2012-05-19T15:03:34Z</time>
      </trkpt>
      <trkpt lat="60.002257" lon="17.7338085">
        <ele>48.684</ele>
        <time>2012-05-19T15:03:40Z</time>
      </trkpt>
      <trkpt lat="60.0021564" lon="17.7343693">
        <ele>48.2034</ele>
        <time>2012-05-19T15:03:48Z</time>
      </trkpt>
      <trkpt lat="60.0020467" lon="17.7348842">
        <ele>45.7999</ele>
        <time>2012-05-19T15:03:54Z</time>
      </trkpt>
      <trkpt lat="60.0019275" lon="17.735288">
        <ele>38.1094</ele>
        <time>2012-05-19T15:04:00Z</time>
      </trkpt>
      <trkpt lat="60.0018798" lon="17.7353956">
        <ele>36.6675</ele>
        <time>2012-05-19T15:04:02Z</time>
      </trkpt>
      <trkpt lat="60.0017709" lon="17.7355602">
        <ele>35.7061</ele>
        <time>2012-05-19T15:04:06Z</time>
      </trkpt>
      <trkpt lat="60.0015682" lon="17.7357819">
        <ele>31.3801</ele>
        <time>2012-05-19T15:04:14Z</time>
      </trkpt>
      <trkpt lat="60.0013503" lon="17.7359883">
        <ele>27.5349</ele>
        <time>2012-05-19T15:04:21Z</time>
      </trkpt>
      <trkpt lat="60.0010783" lon="17.7361621">
        <ele>24.1703</ele>
        <time>2012-05-19T15:04:27Z</time>
      </trkpt>
      <trkpt lat="60.0006558" lon="17.7364586">
        <ele>29.9381</ele>
        <time>2012-05-19T15:04:35Z</time>
      </trkpt>
      <trkpt lat="60.0002729" lon="17.7367512">
        <ele>34.2642</ele>
        <time>2012-05-19T15:04:42Z</time>
      </trkpt>
      <trkpt lat="59.9999859" lon="17.7368234">
        <ele>36.1868</ele>
        <time>2012-05-19T15:04:48Z</time>
      </trkpt>
      <trkpt lat="59.9999002" lon="17.7368206">
        <ele>35.2255</ele>
        <time>2012-05-19T15:04:50Z</time>
      </trkpt>
      <trkpt lat="59.9995867" lon="17.7367988">
        <ele>35.2255</ele>
        <time>2012-05-19T15:04:57Z</time>
      </trkpt>
      <trkpt lat="59.9992467" lon="17.7367312">
        <ele>31.3801</ele>
        <time>2012-05-19T15:05:03Z</time>
      </trkpt>
      <trkpt lat="59.9990262" lon="17.7367575">
        <ele>28.4962</ele>
        <time>2012-05-19T15:05:07Z</time>
      </trkpt>
      <trkpt lat="59.9986456" lon="17.7366921">
        <ele>27.0543</ele>
        <time>2012-05-19T15:05:13Z</time>
      </trkpt>
      <trkpt lat="59.9982962" lon="17.7366368">
        <ele>32.3416</ele>
        <time>2012-05-19T15:05:19Z</time>
      </trkpt>
      <trkpt lat="59.998096" lon="17.7366119">
        <ele>36.6675</ele>
        <time>2012-05-19T15:05:23Z</time>
      </trkpt>
      <trkpt lat="59.9977521" lon="17.736646">
        <ele>40.0321</ele>
        <time>2012-05-19T15:05:30Z</time>
      </trkpt>
      <trkpt lat="59.9974829" lon="17.7366415">
        <ele>41.9547</ele>
        <time>2012-05-19T15:05:35Z</time>
      </trkpt>
      <trkpt lat="59.9973612" lon="17.7366504">
        <ele>40.9934</ele>
        <time>2012-05-19T15:05:37Z</time>
      </trkpt>
      <trkpt lat="59.9969033" lon="17.7365202">
        <ele>36.1868</ele>
        <time>2012-05-19T15:05:43Z</time>
      </trkpt>
      <trkpt lat="59.9964894" lon="17.7362829">
        <ele>28.9769</ele>
        <time>2012-05-19T15:05:49Z</time>
      </trkpt>
      <trkpt lat="59.9961666" lon="17.736095">
        <ele>25.1317</ele>
        <time>2012-05-19T15:05:54Z</time>
      </trkpt>
      <trkpt lat="59.9959573" lon="17.7360554">
        <ele>24.651</ele>
        <time>2012-05-19T15:05:57Z</time>
      </trkpt>
      <trkpt lat="59.9955329" lon="17.7360746">
        <ele>24.1703</ele>
        <time>2012-05-19T15:06:03Z</time>
      </trkpt>
      <trkpt lat="59.9950964" lon="17.7360924">
        <ele>27.5349</ele>
        <time>2012-05-19T15:06:09Z</time>
      </trkpt>
      <trkpt lat="59.9948975" lon="17.736015">
        <ele>28.4962</ele>
        <time>2012-05-19T15:06:12Z</time>
      </trkpt>
      <trkpt lat="59.9947099" lon="17.7358805">
        <ele>33.3029</ele>
        <time>2012-05-19T15:06:15Z</time>
      </trkpt>
      <trkpt lat="59.9942038" lon="17.73561">
        <ele>35.7061</ele>
        <time>2012-05-19T15:06:23Z</time>
      </trkpt>
      <trkpt lat="59.993863" lon="17.7355841">
        <ele>35.7061</ele>
        <time>2012-05-19T15:06:28Z</time>
      </trkpt>
      <trkpt lat="59.9936263" lon="17.7355639">
        <ele>33.7834</ele>
        <time>2012-05-19T15:06:32Z</time>
      </trkpt>
      <trkpt lat="59.9934098" lon="17.735664">
        <ele>35.2255</ele>
        <time>2012-05-19T15:06:36Z</time>
      </trkpt>
      <trkpt lat="59.9931615" lon="17.7360023">
        <ele>40.9934</ele>
        <time>2012-05-19T15:06:43Z</time>
      </trkpt>
      <trkpt lat="59.9929724" lon="17.7363792">
        <ele>46.2806</ele>
        <time>2012-05-19T15:06:49Z</time>
      </trkpt>
      <trkpt lat="59.992948" lon="17.7364457">
        <ele>45.7999</ele>
        <time>2012-05-19T15:06:50Z</time>
      </trkpt>
      <trkpt lat="59.9928968" lon="17.7365668">
        <ele>45.3192</ele>
        <time>2012-05-19T15:06:52Z</time>
      </trkpt>
      <trkpt lat="59.9927752" lon="17.736786">
        <ele>42.916</ele>
        <time>2012-05-19T15:06:56Z</time>
      </trkpt>
      <trkpt lat="59.9926157" lon="17.7370638">
        <ele>40.9934</ele>
        <time>2012-05-19T15:07:01Z</time>
      </trkpt>
      <trkpt lat="59.992367" lon="17.7373371">
        <ele>40.5128</ele>
        <time>2012-05-19T15:07:07Z</time>
      </trkpt>
      <trkpt lat="59.992105" lon="17.7374909">
        <ele>41.474</ele>
        <time>2012-05-19T15:07:13Z</time>
      </trkpt>
      <trkpt lat="59.9920075" lon="17.7375486">
        <ele>42.4354</ele>
        <time>2012-05-19T15:07:15Z</time>
      </trkpt>
      <trkpt lat="59.9916351" lon="17.7376162">
        <ele>33.7834</ele>
        <time>2012-05-19T15:07:22Z</time>
      </trkpt>
      <trkpt lat="59.9913305" lon="17.7376698">
        <ele>36.1868</ele>
        <time>2012-05-19T15:07:28Z</time>
      </trkpt>
      <trkpt lat="59.9910004" lon="17.7378163">
        <ele>49.1646</ele>
        <time>2012-05-19T15:07:34Z</time>
      </trkpt>
      <trkpt lat="59.9905919" lon="17.7380842">
        <ele>57.3358</ele>
        <time>2012-05-19T15:07:41Z</time>
      </trkpt>
      <trkpt lat="59.9901623" lon="17.7382732">
        <ele>69.3523</ele>
        <time>2012-05-19T15:07:48Z</time>
      </trkpt>
      <trkpt lat="59.9897084" lon="17.7383996">
        <ele>62.1423</ele>
        <time>2012-05-19T15:07:56Z</time>
      </trkpt>
      <trkpt lat="59.9893849" lon="17.7385108">
        <ele>61.181</ele>
        <time>2012-05-19T15:08:03Z</time>
      </trkpt>
      <trkpt lat="59.9890625" lon="17.7387105">
        <ele>62.1423</ele>
        <time>2012-05-19T15:08:10Z</time>
      </trkpt>
      <trkpt lat="59.9887098" lon="17.738962">
        <ele>62.6229</ele>
        <time>2012-05-19T15:08:16Z</time>
      </trkpt>
      <trkpt lat="59.9882561" lon="17.7391834">
        <ele>61.6617</ele>
        <time>2012-05-19T15:08:23Z</time>
      </trkpt>
      <trkpt lat="59.9878049" lon="17.7392709">
        <ele>62.6229</ele>
        <time>2012-05-19T15:08:29Z</time>
      </trkpt>
      <trkpt lat="59.9872878" lon="17.739346">
        <ele>60.2197</ele>
        <time>2012-05-19T15:08:36Z</time>
      </trkpt>
      <trkpt lat="59.9871511" lon="17.739345">
        <ele>58.7777</ele>
        <time>2012-05-19T15:08:38Z</time>
      </trkpt>
      <trkpt lat="59.986801" lon="17.7391026">
        <ele>55.4131</ele>
        <time>2012-05-19T15:08:44Z</time>
      </trkpt>
      <trkpt lat="59.9864157" lon="17.738756">
        <ele>52.5292</ele>
        <time>2012-05-19T15:08:50Z</time>
      </trkpt>
      <trkpt lat="59.9859898" lon="17.7384902">
        <ele>54.4518</ele>
        <time>2012-05-19T15:08:56Z</time>
      </trkpt>
      <trkpt lat="59.9854179" lon="17.7382814">
        <ele>49.6453</ele>
        <time>2012-05-19T15:09:04Z</time>
      </trkpt>
      <trkpt lat="59.9848901" lon="17.7381468">
        <ele>48.2034</ele>
        <time>2012-05-19T15:09:11Z</time>
      </trkpt>
      <trkpt lat="59.9843326" lon="17.7379853">
        <ele>49.1646</ele>
        <time>2012-05-19T15:09:18Z</time>
      </trkpt>
      <trkpt lat="59.9838338" lon="17.7379744">
        <ele>55.4131</ele>
        <time>2012-05-19T15:09:24Z</time>
      </trkpt>
      <trkpt lat="59.983345" lon="17.7380734">
        <ele>53.4905</ele>
        <time>2012-05-19T15:09:30Z</time>
      </trkpt>
      <trkpt lat="59.9829356" lon="17.738101">
        <ele>53.4905</ele>
        <time>2012-05-19T15:09:36Z</time>
      </trkpt>
      <trkpt lat="59.9825166" lon="17.7380706">
        <ele>54.9324</ele>
        <time>2012-05-19T15:09:43Z</time>
      </trkpt>
      <trkpt lat="59.9821221" lon="17.7381699">
        <ele>59.2584</ele>
        <time>2012-05-19T15:09:49Z</time>
      </trkpt>
      <trkpt lat="59.9817935" lon="17.7383166">
        <ele>61.6617</ele>
        <time>2012-05-19T15:09:55Z</time>
      </trkpt>
      <trkpt lat="59.9814589" lon="17.738455">
        <ele>68.3909</ele>
        <time>2012-05-19T15:10:00Z</time>
      </trkpt>
      <trkpt lat="59.9810588" lon="17.7385655">
        <ele>68.3909</ele>
        <time>2012-05-19T15:10:05Z</time>
      </trkpt>
      <trkpt lat="59.9804746" lon="17.7387202">
        <ele>60.7003</ele>
        <time>2012-05-19T15:10:13Z</time>
      </trkpt>
      <trkpt lat="59.9800555" lon="17.7387201">
        <ele>51.0872</ele>
        <time>2012-05-19T15:10:19Z</time>
      </trkpt>
      <trkpt lat="59.9797074" lon="17.7388083">
        <ele>45.7999</ele>
        <time>2012-05-19T15:10:24Z</time>
      </trkpt>
      <trkpt lat="59.9795704" lon="17.7388732">
        <ele>43.3966</ele>
        <time>2012-05-19T15:10:26Z</time>
      </trkpt>
      <trkpt lat="59.9790814" lon="17.739203">
        <ele>44.8386</ele>
        <time>2012-05-19T15:10:33Z</time>
      </trkpt>
      <trkpt lat="59.9788583" lon="17.7392699">
        <ele>45.3192</ele>
        <time>2012-05-19T15:10:36Z</time>
      </trkpt>
      <trkpt lat="59.9783216" lon="17.7391741">
        <ele>39.5513</ele>
        <time>2012-05-19T15:10:43Z</time>
      </trkpt>
      <trkpt lat="59.9779209" lon="17.7390314">
        <ele>33.7834</ele>
        <time>2012-05-19T15:10:48Z</time>
      </trkpt>
      <trkpt lat="59.9776768" lon="17.7389421">
        <ele>28.9769</ele>
        <time>2012-05-19T15:10:51Z</time>
      </trkpt>
      <trkpt lat="59.977226" lon="17.7390542">
        <ele>23.6896</ele>
        <time>2012-05-19T15:10:56Z</time>
      </trkpt>
      <trkpt lat="59.9766184" lon="17.7393387">
        <ele>19.8444</ele>
        <time>2012-05-19T15:11:03Z</time>
      </trkpt>
      <trkpt lat="59.976359" lon="17.7396243">
        <ele>20.8057</ele>
        <time>2012-05-19T15:11:07Z</time>
      </trkpt>
      <trkpt lat="59.9761624" lon="17.7396791">
        <ele>20.325</ele>
        <time>2012-05-19T15:11:10Z</time>
      </trkpt>
      <trkpt lat="59.9759934" lon="17.7393932">
        <ele>19.8444</ele>
        <time>2012-05-19T15:11:13Z</time>
      </trkpt>
      <trkpt lat="59.9754809" lon="17.7384367">
        <ele>18.8831</ele>
        <time>2012-05-19T15:11:22Z</time>
      </trkpt>
      <trkpt lat="59.9751121" lon="17.7377738">
        <ele>18.4023</ele>
        <time>2012-05-19T15:11:29Z</time>
      </trkpt>
      <trkpt lat="59.9747018" lon="17.7368876">
        <ele>17.4412</ele>
        <time>2012-05-19T15:11:38Z</time>
      </trkpt>
      <trkpt lat="59.9744745" lon="17.7360804">
        <ele>17.4412</ele>
        <time>2012-05-19T15:11:45Z</time>
      </trkpt>
      <trkpt lat="59.9743158" lon="17.7350673">
        <ele>16.4797</ele>
        <time>2012-05-19T15:11:53Z</time>
      </trkpt>
      <trkpt lat="59.974264" lon="17.734085">
        <ele>10.7118</ele>
        <time>2012-05-19T15:12:00Z</time>
      </trkpt>
      <trkpt lat="59.9742728" lon="17.7333305">
        <ele>2.54065</ele>
        <time>2012-05-19T15:12:06Z</time>
      </trkpt>
      <trkpt lat="59.9742672" lon="17.732462">
        <ele>0</ele>
        <time>2012-05-19T15:12:13Z</time>
      </trkpt>
      <trkpt lat="59.9742605" lon="17.7311961">
        <ele>0</ele>
        <time>2012-05-19T15:12:23Z</time>
      </trkpt>
      <trkpt lat="59.9743072" lon="17.7303865">
        <ele>0</ele>
        <time>2012-05-19T15:12:30Z</time>
      </trkpt>
      <trkpt lat="59.974376" lon="17.7293926">
        <ele>0</ele>
        <time>2012-05-19T15:12:39Z</time>
      </trkpt>
      <trkpt lat="59.9743626" lon="17.7284455">
        <ele>0</ele>
        <time>2012-05-19T15:12:47Z</time>
      </trkpt>
      <trkpt lat="59.9743331" lon="17.7273865">
        <ele>0</ele>
        <time>2012-05-19T15:12:56Z</time>
      </trkpt>
      <trkpt lat="59.9743117" lon="17.7265538">
        <ele>0</ele>
        <time>2012-05-19T15:13:04Z</time>
      </trkpt>
      <trkpt lat="59.9742838" lon="17.7257212">
        <ele>0</ele>
        <time>2012-05-19T15:13:12Z</time>
      </trkpt>
      <trkpt lat="59.974216" lon="17.7249236">
        <ele>0</ele>
        <time>2012-05-19T15:13:19Z</time>
      </trkpt>
      <trkpt lat="59.9740676" lon="17.7238398">
        <ele>0</ele>
        <time>2012-05-19T15:13:28Z</time>
      </trkpt>
      <trkpt lat="59.973927" lon="17.7229189">
        <ele>0</ele>
        <time>2012-05-19T15:13:36Z</time>
      </trkpt>
      <trkpt lat="59.9737148" lon="17.7221062">
        <ele>0</ele>
        <time>2012-05-19T15:13:44Z</time>
      </trkpt>
      <trkpt lat="59.9735891" lon="17.7217407">
        <ele>0</ele>
        <time>2012-05-19T15:13:48Z</time>
      </trkpt>
      <trkpt lat="59.973513" lon="17.7215804">
        <ele>0</ele>
        <time>2012-05-19T15:13:50Z</time>
      </trkpt>
      <trkpt lat="59.9731633" lon="17.7208779">
        <ele>0</ele>
        <time>2012-05-19T15:13:59Z</time>
      </trkpt>
      <trkpt lat="59.9728079" lon="17.720387">
        <ele>0.137451</ele>
        <time>2012-05-19T15:14:07Z</time>
      </trkpt>
      <trkpt lat="59.9723978" lon="17.7199848">
        <ele>4.46326</ele>
        <time>2012-05-19T15:14:16Z</time>
      </trkpt>
      <trkpt lat="59.9719469" lon="17.7195989">
        <ele>13.5958</ele>
        <time>2012-05-19T15:14:26Z</time>
      </trkpt>
      <trkpt lat="59.9714568" lon="17.7191705">
        <ele>16.4797</ele>
        <time>2012-05-19T15:14:36Z</time>
      </trkpt>
      <trkpt lat="59.970927" lon="17.7186941">
        <ele>16.9604</ele>
        <time>2012-05-19T15:14:47Z</time>
      </trkpt>
      <trkpt lat="59.9703677" lon="17.7181738">
        <ele>15.999</ele>
        <time>2012-05-19T15:14:59Z</time>
      </trkpt>
      <trkpt lat="59.9699184" lon="17.7177672">
        <ele>14.557</ele>
        <time>2012-05-19T15:15:09Z</time>
      </trkpt>
      <trkpt lat="59.9695559" lon="17.717493">
        <ele>15.5184</ele>
        <time>2012-05-19T15:15:17Z</time>
      </trkpt>
      <trkpt lat="59.9691326" lon="17.717274">
        <ele>15.999</ele>
        <time>2012-05-19T15:15:26Z</time>
      </trkpt>
      <trkpt lat="59.9686508" lon="17.7170817">
        <ele>18.8831</ele>
        <time>2012-05-19T15:15:35Z</time>
      </trkpt>
      <trkpt lat="59.9682724" lon="17.7168358">
        <ele>16.9604</ele>
        <time>2012-05-19T15:15:41Z</time>
      </trkpt>
      <trkpt lat="59.9679113" lon="17.7163224">
        <ele>14.557</ele>
        <time>2012-05-19T15:15:47Z</time>
      </trkpt>
      <trkpt lat="59.9676477" lon="17.7156474">
        <ele>7.34717</ele>
        <time>2012-05-19T15:15:52Z</time>
      </trkpt>
      <trkpt lat="59.9675386" lon="17.7151998">
        <ele>6.86646</ele>
        <time>2012-05-19T15:15:55Z</time>
      </trkpt>
      <trkpt lat="59.9674347" lon="17.7143803">
        <ele>7.34717</ele>
        <time>2012-05-19T15:16:01Z</time>
      </trkpt>
      <trkpt lat="59.9673806" lon="17.7138599">
        <ele>8.30859</ele>
        <time>2012-05-19T15:16:06Z</time>
      </trkpt>
      <trkpt lat="59.9673003" lon="17.7133106">
        <ele>9.75061</ele>
        <time>2012-05-19T15:16:12Z</time>
      </trkpt>
      <trkpt lat="59.9671486" lon="17.7126373">
        <ele>10.2312</ele>
        <time>2012-05-19T15:16:19Z</time>
      </trkpt>
      <trkpt lat="59.9669902" lon="17.7121364">
        <ele>12.6344</ele>
        <time>2012-05-19T15:16:25Z</time>
      </trkpt>
      <trkpt lat="59.9667653" lon="17.711552">
        <ele>13.5958</ele>
        <time>2012-05-19T15:16:32Z</time>
      </trkpt>
      <trkpt lat="59.9665384" lon="17.71083">
        <ele>14.0764</ele>
        <time>2012-05-19T15:16:40Z</time>
      </trkpt>
      <trkpt lat="59.9663395" lon="17.7101291">
        <ele>15.5184</ele>
        <time>2012-05-19T15:16:47Z</time>
      </trkpt>
      <trkpt lat="59.9660692" lon="17.7092292">
        <ele>16.4797</ele>
        <time>2012-05-19T15:16:55Z</time>
      </trkpt>
      <trkpt lat="59.9657585" lon="17.708369">
        <ele>18.4023</ele>
        <time>2012-05-19T15:17:03Z</time>
      </trkpt>
      <trkpt lat="59.965502" lon="17.7079955">
        <ele>19.3638</ele>
        <time>2012-05-19T15:17:08Z</time>
      </trkpt>
      <trkpt lat="59.9649849" lon="17.7075598">
        <ele>20.8057</ele>
        <time>2012-05-19T15:17:17Z</time>
      </trkpt>
      <trkpt lat="59.9645427" lon="17.7072549">
        <ele>20.325</ele>
        <time>2012-05-19T15:17:25Z</time>
      </trkpt>
      <trkpt lat="59.9642043" lon="17.7071217">
        <ele>19.8444</ele>
        <time>2012-05-19T15:17:31Z</time>
      </trkpt>
      <trkpt lat="59.963878" lon="17.7070577">
        <ele>18.8831</ele>
        <time>2012-05-19T15:17:37Z</time>
      </trkpt>
      <trkpt lat="59.9633262" lon="17.7069983">
        <ele>18.8831</ele>
        <time>2012-05-19T15:17:47Z</time>
      </trkpt>
      <trkpt lat="59.9629354" lon="17.7070118">
        <ele>19.8444</ele>
        <time>2012-05-19T15:17:54Z</time>
      </trkpt>
      <trkpt lat="59.9625286" lon="17.7069409">
        <ele>19.8444</ele>
        <time>2012-05-19T15:18:01Z</time>
      </trkpt>
      <trkpt lat="59.9622205" lon="17.7067856">
        <ele>18.8831</ele>
        <time>2012-05-19T15:18:07Z</time>
      </trkpt>
      <trkpt lat="59.9618759" lon="17.7066021">
        <ele>20.8057</ele>
        <time>2012-05-19T15:18:13Z</time>
      </trkpt>
      <trkpt lat="59.9615486" lon="17.7062311">
        <ele>20.325</ele>
        <time>2012-05-19T15:18:19Z</time>
      </trkpt>
      <trkpt lat="59.96119" lon="17.7055853">
        <ele>23.6896</ele>
        <time>2012-05-19T15:18:27Z</time>
      </trkpt>
      <trkpt lat="59.9609446" lon="17.7051829">
        <ele>26.0929</ele>
        <time>2012-05-19T15:18:33Z</time>
      </trkpt>
      <trkpt lat="59.9606941" lon="17.7048652">
        <ele>27.5349</ele>
        <time>2012-05-19T15:18:39Z</time>
      </trkpt>
      <trkpt lat="59.9603137" lon="17.7044327">
        <ele>25.1317</ele>
        <time>2012-05-19T15:18:47Z</time>
      </trkpt>
      <trkpt lat="59.9601042" lon="17.7042254">
        <ele>23.6896</ele>
        <time>2012-05-19T15:18:51Z</time>
      </trkpt>
      <trkpt lat="59.9599354" lon="17.7038986">
        <ele>24.1703</ele>
        <time>2012-05-19T15:18:56Z</time>
      </trkpt>
      <trkpt lat="59.9597708" lon="17.7032422">
        <ele>24.1703</ele>
        <time>2012-05-19T15:19:04Z</time>
      </trkpt>
      <trkpt lat="59.9596754" lon="17.7028631">
        <ele>22.2476</ele>
        <time>2012-05-19T15:19:09Z</time>
      </trkpt>
      <trkpt lat="59.9595605" lon="17.7023668">
        <ele>21.767</ele>
        <time>2012-05-19T15:19:15Z</time>
      </trkpt>
      <trkpt lat="59.9594053" lon="17.7017425">
        <ele>19.8444</ele>
        <time>2012-05-19T15:19:22Z</time>
      </trkpt>
      <trkpt lat="59.9592689" lon="17.7010459">
        <ele>17.4412</ele>
        <time>2012-05-19T15:19:29Z</time>
      </trkpt>
      <trkpt lat="59.9591532" lon="17.7001276">
        <ele>12.1538</ele>
        <time>2012-05-19T15:19:37Z</time>
      </trkpt>
      <trkpt lat="59.9590764" lon="17.6992831">
        <ele>11.1925</ele>
        <time>2012-05-19T15:19:44Z</time>
      </trkpt>
      <trkpt lat="59.9590554" lon="17.6986246">
        <ele>11.6732</ele>
        <time>2012-05-19T15:19:50Z</time>
      </trkpt>
      <trkpt lat="59.9590133" lon="17.6976654">
        <ele>14.0764</ele>
        <time>2012-05-19T15:19:58Z</time>
      </trkpt>
      <trkpt lat="59.9588418" lon="17.6967651">
        <ele>12.1538</ele>
        <time>2012-05-19T15:20:05Z</time>
      </trkpt>
      <trkpt lat="59.9586452" lon="17.6961368">
        <ele>10.7118</ele>
        <time>2012-05-19T15:20:11Z</time>
      </trkpt>
      <trkpt lat="59.9584123" lon="17.6955415">
        <ele>9.75061</ele>
        <time>2012-05-19T15:20:17Z</time>
      </trkpt>
      <trkpt lat="59.9579976" lon="17.6943894">
        <ele>11.6732</ele>
        <time>2012-05-19T15:20:28Z</time>
      </trkpt>
      <trkpt lat="59.9577039" lon="17.6935173">
        <ele>12.6344</ele>
        <time>2012-05-19T15:20:36Z</time>
      </trkpt>
      <trkpt lat="59.9573375" lon="17.6924377">
        <ele>15.0377</ele>
        <time>2012-05-19T15:20:46Z</time>
      </trkpt>
      <trkpt lat="59.9569744" lon="17.6913742">
        <ele>16.9604</ele>
        <time>2012-05-19T15:20:56Z</time>
      </trkpt>
      <trkpt lat="59.9567897" lon="17.6908453">
        <ele>19.3638</ele>
        <time>2012-05-19T15:21:02Z</time>
      </trkpt>
      <trkpt lat="59.9566306" lon="17.6903308">
        <ele>19.3638</ele>
        <time>2012-05-19T15:21:09Z</time>
      </trkpt>
      <trkpt lat="59.9564813" lon="17.6898225">
        <ele>23.209</ele>
        <time>2012-05-19T15:21:16Z</time>
      </trkpt>
      <trkpt lat="59.9563041" lon="17.6890789">
        <ele>25.1317</ele>
        <time>2012-05-19T15:21:24Z</time>
      </trkpt>
      <trkpt lat="59.9561875" lon="17.688478">
        <ele>29.9381</ele>
        <time>2012-05-19T15:21:31Z</time>
      </trkpt>
      <trkpt lat="59.9561255" lon="17.6881483">
        <ele>32.8223</ele>
        <time>2012-05-19T15:21:35Z</time>
      </trkpt>
      <trkpt lat="59.9559816" lon="17.6875516">
        <ele>33.7834</ele>
        <time>2012-05-19T15:21:42Z</time>
      </trkpt>
      <trkpt lat="59.9559046" lon="17.6869777">
        <ele>30.8995</ele>
        <time>2012-05-19T15:21:48Z</time>
      </trkpt>
      <trkpt lat="59.9558001" lon="17.6866613">
        <ele>29.4575</ele>
        <time>2012-05-19T15:21:52Z</time>
      </trkpt>
      <trkpt lat="59.9556768" lon="17.6860842">
        <ele>26.5736</ele>
        <time>2012-05-19T15:21:58Z</time>
      </trkpt>
      <trkpt lat="59.9555772" lon="17.6853296">
        <ele>21.2864</ele>
        <time>2012-05-19T15:22:04Z</time>
      </trkpt>
      <trkpt lat="59.9554271" lon="17.6843278">
        <ele>20.325</ele>
        <time>2012-05-19T15:22:12Z</time>
      </trkpt>
      <trkpt lat="59.9552476" lon="17.6833189">
        <ele>21.767</ele>
        <time>2012-05-19T15:22:20Z</time>
      </trkpt>
      <trkpt lat="59.9549874" lon="17.6823815">
        <ele>25.1317</ele>
        <time>2012-05-19T15:22:28Z</time>
      </trkpt>
      <trkpt lat="59.95487" lon="17.68205">
        <ele>24.651</ele>
        <time>2012-05-19T15:22:31Z</time>
      </trkpt>
      <trkpt lat="59.9547159" lon="17.6818174">
        <ele>25.1317</ele>
        <time>2012-05-19T15:22:34Z</time>
      </trkpt>
      <trkpt lat="59.9544951" lon="17.6811937">
        <ele>24.651</ele>
        <time>2012-05-19T15:22:40Z</time>
      </trkpt>
      <trkpt lat="59.9542045" lon="17.6803031">
        <ele>24.1703</ele>
        <time>2012-05-19T15:22:48Z</time>
      </trkpt>
      <trkpt lat="59.9538891" lon="17.6793808">
        <ele>23.6896</ele>
        <time>2012-05-19T15:22:57Z</time>
      </trkpt>
      <trkpt lat="59.953583" lon="17.6784804">
        <ele>24.1703</ele>
        <time>2012-05-19T15:23:06Z</time>
      </trkpt>
      <trkpt lat="59.9532952" lon="17.6776148">
        <ele>23.6896</ele>
        <time>2012-05-19T15:23:15Z</time>
      </trkpt>
      <trkpt lat="59.9530032" lon="17.6768335">
        <ele>23.6896</ele>
        <time>2012-05-19T15:23:24Z</time>
      </trkpt>
      <trkpt lat="59.9527663" lon="17.6762621">
        <ele>24.651</ele>
        <time>2012-05-19T15:23:31Z</time>
      </trkpt>
      <trkpt lat="59.9525647" lon="17.6756743">
        <ele>26.0929</ele>
        <time>2012-05-19T15:23:38Z</time>
      </trkpt>
      <trkpt lat="59.9523533" lon="17.6751124">
        <ele>28.4962</ele>
        <time>2012-05-19T15:23:46Z</time>
      </trkpt>
      <trkpt lat="59.9523124" lon="17.6749653">
        <ele>28.9769</ele>
        <time>2012-05-19T15:23:48Z</time>
      </trkpt>
      <trkpt lat="59.9521891" lon="17.674276">
        <ele>27.0543</ele>
        <time>2012-05-19T15:23:55Z</time>
      </trkpt>
      <trkpt lat="59.9520491" lon="17.6735607">
        <ele>25.1317</ele>
        <time>2012-05-19T15:24:02Z</time>
      </trkpt>
      <trkpt lat="59.9519068" lon="17.6726813">
        <ele>23.209</ele>
        <time>2012-05-19T15:24:11Z</time>
      </trkpt>
      <trkpt lat="59.951817" lon="17.6718887">
        <ele>21.2864</ele>
        <time>2012-05-19T15:24:19Z</time>
      </trkpt>
      <trkpt lat="59.9518114" lon="17.6713544">
        <ele>20.325</ele>
        <time>2012-05-19T15:24:25Z</time>
      </trkpt>
      <trkpt lat="59.9517545" lon="17.671031">
        <ele>19.3638</ele>
        <time>2012-05-19T15:24:28Z</time>
      </trkpt>
      <trkpt lat="59.9517502" lon="17.6704125">
        <ele>18.4023</ele>
        <time>2012-05-19T15:24:33Z</time>
      </trkpt>
      <trkpt lat="59.9518136" lon="17.6696276">
        <ele>18.4023</ele>
        <time>2012-05-19T15:24:40Z</time>
      </trkpt>
      <trkpt lat="59.9518394" lon="17.6689584">
        <ele>17.4412</ele>
        <time>2012-05-19T15:24:47Z</time>
      </trkpt>
      <trkpt lat="59.9518405" lon="17.6688697">
        <ele>17.4412</ele>
        <time>2012-05-19T15:24:48Z</time>
      </trkpt>
      <trkpt lat="59.951767" lon="17.6684071">
        <ele>17.4412</ele>
        <time>2012-05-19T15:24:54Z</time>
      </trkpt>
      <trkpt lat="59.9517952" lon="17.6683303">
        <ele>16.9604</ele>
        <time>2012-05-19T15:24:57Z</time>
      </trkpt>
      <trkpt lat="59.9518649" lon="17.6684174">
        <ele>15.999</ele>
        <time>2012-05-19T15:25:00Z</time>
      </trkpt>
      <trkpt lat="59.9518758" lon="17.6685776">
        <ele>15.999</ele>
        <time>2012-05-19T15:25:02Z</time>
      </trkpt>
      <trkpt lat="59.9518989" lon="17.6692428">
        <ele>17.9218</ele>
        <time>2012-05-19T15:25:09Z</time>
      </trkpt>
      <trkpt lat="59.9518664" lon="17.6701421">
        <ele>22.2476</ele>
        <time>2012-05-19T15:25:17Z</time>
      </trkpt>
      <trkpt lat="59.9518484" lon="17.6708324">
        <ele>26.0929</ele>
        <time>2012-05-19T15:25:24Z</time>
      </trkpt>
      <trkpt lat="59.9518747" lon="17.6716364">
        <ele>28.0155</ele>
        <time>2012-05-19T15:25:33Z</time>
      </trkpt>
      <trkpt lat="59.9519358" lon="17.6724331">
        <ele>29.4575</ele>
        <time>2012-05-19T15:25:42Z</time>
      </trkpt>
      <trkpt lat="59.9520648" lon="17.6734432">
        <ele>30.4188</ele>
        <time>2012-05-19T15:25:53Z</time>
      </trkpt>
      <trkpt lat="59.9522326" lon="17.674311">
        <ele>30.4188</ele>
        <time>2012-05-19T15:26:02Z</time>
      </trkpt>
      <trkpt lat="59.9525128" lon="17.6753224">
        <ele>31.3801</ele>
        <time>2012-05-19T15:26:12Z</time>
      </trkpt>
      <trkpt lat="59.9528429" lon="17.6763109">
        <ele>30.8995</ele>
        <time>2012-05-19T15:26:21Z</time>
      </trkpt>
      <trkpt lat="59.9532128" lon="17.6773692">
        <ele>30.4188</ele>
        <time>2012-05-19T15:26:30Z</time>
      </trkpt>
      <trkpt lat="59.953581" lon="17.6783903">
        <ele>30.8995</ele>
        <time>2012-05-19T15:26:39Z</time>
      </trkpt>
      <trkpt lat="59.9539794" lon="17.6794721">
        <ele>31.8607</ele>
        <time>2012-05-19T15:26:49Z</time>
      </trkpt>
      <trkpt lat="59.9543157" lon="17.6804307">
        <ele>31.3801</ele>
        <time>2012-05-19T15:26:58Z</time>
      </trkpt>
      <trkpt lat="59.9547081" lon="17.6815681">
        <ele>30.4188</ele>
        <time>2012-05-19T15:27:08Z</time>
      </trkpt>
      <trkpt lat="59.9550863" lon="17.6826882">
        <ele>31.3801</ele>
        <time>2012-05-19T15:27:18Z</time>
      </trkpt>
      <trkpt lat="59.9554007" lon="17.6838802">
        <ele>34.2642</ele>
        <time>2012-05-19T15:27:28Z</time>
      </trkpt>
      <trkpt lat="59.9556084" lon="17.6851361">
        <ele>33.7834</ele>
        <time>2012-05-19T15:27:38Z</time>
      </trkpt>
      <trkpt lat="59.9558564" lon="17.6867445">
        <ele>34.7449</ele>
        <time>2012-05-19T15:27:50Z</time>
      </trkpt>
      <trkpt lat="59.9560282" lon="17.6879196">
        <ele>31.8607</ele>
        <time>2012-05-19T15:27:59Z</time>
      </trkpt>
      <trkpt lat="59.9562212" lon="17.6890787">
        <ele>33.7834</ele>
        <time>2012-05-19T15:28:08Z</time>
      </trkpt>
      <trkpt lat="59.9563942" lon="17.6899059">
        <ele>33.7834</ele>
        <time>2012-05-19T15:28:15Z</time>
      </trkpt>
      <trkpt lat="59.9566217" lon="17.6906633">
        <ele>33.7834</ele>
        <time>2012-05-19T15:28:22Z</time>
      </trkpt>
      <trkpt lat="59.9567391" lon="17.6909763">
        <ele>33.3029</ele>
        <time>2012-05-19T15:28:25Z</time>
      </trkpt>
      <trkpt lat="59.9570419" lon="17.6919009">
        <ele>32.3416</ele>
        <time>2012-05-19T15:28:33Z</time>
      </trkpt>
      <trkpt lat="59.9571589" lon="17.6922557">
        <ele>32.3416</ele>
        <time>2012-05-19T15:28:37Z</time>
      </trkpt>
      <trkpt lat="59.9572116" lon="17.6922597">
        <ele>31.3801</ele>
        <time>2012-05-19T15:28:41Z</time>
      </trkpt>
      <trkpt lat="59.9571667" lon="17.6922444">
        <ele>30.4188</ele>
        <time>2012-05-19T15:28:44Z</time>
      </trkpt>
      <trkpt lat="59.9571575" lon="17.6923024">
        <ele>30.4188</ele>
        <time>2012-05-19T15:28:48Z</time>
      </trkpt>
      <trkpt lat="59.9571553" lon="17.6923338">
        <ele>30.4188</ele>
        <time>2012-05-19T15:29:03Z</time>
      </trkpt>
      <trkpt lat="59.9571528" lon="17.6923423">
        <ele>31.8607</ele>
        <time>2012-05-19T15:29:15Z</time>
      </trkpt>
      <trkpt lat="59.9571134" lon="17.6923454">
        <ele>29.9381</ele>
        <time>2012-05-19T15:29:28Z</time>
      </trkpt>
      <trkpt lat="59.9570938" lon="17.6923243">
        <ele>26.0929</ele>
        <time>2012-05-19T15:29:44Z</time>
      </trkpt>
      <trkpt lat="59.9570879" lon="17.6923206">
        <ele>25.1317</ele>
        <time>2012-05-19T15:29:46Z</time>
      </trkpt>
      <trkpt lat="59.9573609" lon="17.6928339">
        <ele>25.6123</ele>
        <time>2012-05-19T15:31:35Z</time>
      </trkpt>
      <trkpt lat="59.9573926" lon="17.6929313">
        <ele>25.6123</ele>
        <time>2012-05-19T15:31:36Z</time>
      </trkpt>
      <trkpt lat="59.9575916" lon="17.6935678">
        <ele>24.1703</ele>
        <time>2012-05-19T15:31:41Z</time>
      </trkpt>
      <trkpt lat="59.9578482" lon="17.6943157">
        <ele>22.7283</ele>
        <time>2012-05-19T15:31:48Z</time>
      </trkpt>
      <trkpt lat="59.9580629" lon="17.6949977">
        <ele>24.651</ele>
        <time>2012-05-19T15:31:55Z</time>
      </trkpt>
      <trkpt lat="59.9583077" lon="17.695651">
        <ele>26.0929</ele>
        <time>2012-05-19T15:32:02Z</time>
      </trkpt>
      <trkpt lat="59.9586511" lon="17.6965551">
        <ele>25.1317</ele>
        <time>2012-05-19T15:32:11Z</time>
      </trkpt>
      <trkpt lat="59.9588523" lon="17.6973915">
        <ele>24.651</ele>
        <time>2012-05-19T15:32:18Z</time>
      </trkpt>
      <trkpt lat="59.958921" lon="17.6978664">
        <ele>23.6896</ele>
        <time>2012-05-19T15:32:22Z</time>
      </trkpt>
      <trkpt lat="59.9589866" lon="17.6988754">
        <ele>26.0929</ele>
        <time>2012-05-19T15:32:31Z</time>
      </trkpt>
      <trkpt lat="59.9590489" lon="17.6998668">
        <ele>26.0929</ele>
        <time>2012-05-19T15:32:39Z</time>
      </trkpt>
      <trkpt lat="59.9591725" lon="17.7010349">
        <ele>26.5736</ele>
        <time>2012-05-19T15:32:48Z</time>
      </trkpt>
      <trkpt lat="59.9593014" lon="17.7017715">
        <ele>26.5736</ele>
        <time>2012-05-19T15:32:54Z</time>
      </trkpt>
      <trkpt lat="59.9593304" lon="17.7018856">
        <ele>27.0543</ele>
        <time>2012-05-19T15:32:55Z</time>
      </trkpt>
      <trkpt lat="59.9596298" lon="17.7029153">
        <ele>29.4575</ele>
        <time>2012-05-19T15:33:03Z</time>
      </trkpt>
      <trkpt lat="59.9599624" lon="17.7039224">
        <ele>29.4575</ele>
        <time>2012-05-19T15:33:11Z</time>
      </trkpt>
      <trkpt lat="59.9601862" lon="17.7045527">
        <ele>27.0543</ele>
        <time>2012-05-19T15:33:16Z</time>
      </trkpt>
      <trkpt lat="59.9602564" lon="17.7046676">
        <ele>27.5349</ele>
        <time>2012-05-19T15:33:17Z</time>
      </trkpt>
      <trkpt lat="59.9607803" lon="17.7052338">
        <ele>24.1703</ele>
        <time>2012-05-19T15:33:25Z</time>
      </trkpt>
      <trkpt lat="59.961143" lon="17.7058514">
        <ele>26.5736</ele>
        <time>2012-05-19T15:33:31Z</time>
      </trkpt>
      <trkpt lat="59.9615766" lon="17.706575">
        <ele>31.8607</ele>
        <time>2012-05-19T15:33:38Z</time>
      </trkpt>
      <trkpt lat="59.9619422" lon="17.7069155">
        <ele>32.3416</ele>
        <time>2012-05-19T15:33:43Z</time>
      </trkpt>
      <trkpt lat="59.9625315" lon="17.7072297">
        <ele>29.9381</ele>
        <time>2012-05-19T15:33:50Z</time>
      </trkpt>
      <trkpt lat="59.9629727" lon="17.7072958">
        <ele>27.5349</ele>
        <time>2012-05-19T15:33:55Z</time>
      </trkpt>
      <trkpt lat="59.9635147" lon="17.7072865">
        <ele>26.0929</ele>
        <time>2012-05-19T15:34:01Z</time>
      </trkpt>
      <trkpt lat="59.9639988" lon="17.7073418">
        <ele>23.6896</ele>
        <time>2012-05-19T15:34:07Z</time>
      </trkpt>
      <trkpt lat="59.9645671" lon="17.7075232">
        <ele>25.1317</ele>
        <time>2012-05-19T15:34:14Z</time>
      </trkpt>
      <trkpt lat="59.9651233" lon="17.707905">
        <ele>24.651</ele>
        <time>2012-05-19T15:34:21Z</time>
      </trkpt>
      <trkpt lat="59.9656336" lon="17.7084124">
        <ele>23.6896</ele>
        <time>2012-05-19T15:34:28Z</time>
      </trkpt>
      <trkpt lat="59.9659127" lon="17.7090258">
        <ele>23.209</ele>
        <time>2012-05-19T15:34:33Z</time>
      </trkpt>
      <trkpt lat="59.9662671" lon="17.710323">
        <ele>22.2476</ele>
        <time>2012-05-19T15:34:42Z</time>
      </trkpt>
      <trkpt lat="59.9664903" lon="17.7112813">
        <ele>17.9218</ele>
        <time>2012-05-19T15:34:49Z</time>
      </trkpt>
      <trkpt lat="59.9667148" lon="17.7120325">
        <ele>15.999</ele>
        <time>2012-05-19T15:34:55Z</time>
      </trkpt>
      <trkpt lat="59.9669908" lon="17.7128615">
        <ele>15.5184</ele>
        <time>2012-05-19T15:35:02Z</time>
      </trkpt>
      <trkpt lat="59.9671519" lon="17.7135455">
        <ele>15.999</ele>
        <time>2012-05-19T15:35:07Z</time>
      </trkpt>
      <trkpt lat="59.9673798" lon="17.7149416">
        <ele>16.4797</ele>
        <time>2012-05-19T15:35:15Z</time>
      </trkpt>
      <trkpt lat="59.9674817" lon="17.715695">
        <ele>14.0764</ele>
        <time>2012-05-19T15:35:19Z</time>
      </trkpt>
      <trkpt lat="59.9677061" lon="17.7163474">
        <ele>17.9218</ele>
        <time>2012-05-19T15:35:23Z</time>
      </trkpt>
      <trkpt lat="59.9678827" lon="17.7166857">
        <ele>17.9218</ele>
        <time>2012-05-19T15:35:26Z</time>
      </trkpt>
      <trkpt lat="59.9682879" lon="17.7171297">
        <ele>20.8057</ele>
        <time>2012-05-19T15:35:32Z</time>
      </trkpt>
      <trkpt lat="59.9686572" lon="17.7173425">
        <ele>21.2864</ele>
        <time>2012-05-19T15:35:37Z</time>
      </trkpt>
      <trkpt lat="59.9693388" lon="17.7175969">
        <ele>22.7283</ele>
        <time>2012-05-19T15:35:46Z</time>
      </trkpt>
      <trkpt lat="59.9698966" lon="17.7179786">
        <ele>23.6896</ele>
        <time>2012-05-19T15:35:53Z</time>
      </trkpt>
      <trkpt lat="59.9705682" lon="17.7185767">
        <ele>24.651</ele>
        <time>2012-05-19T15:36:02Z</time>
      </trkpt>
      <trkpt lat="59.9712607" lon="17.7191919">
        <ele>25.1317</ele>
        <time>2012-05-19T15:36:11Z</time>
      </trkpt>
      <trkpt lat="59.9720232" lon="17.7198717">
        <ele>24.1703</ele>
        <time>2012-05-19T15:36:20Z</time>
      </trkpt>
      <trkpt lat="59.9728225" lon="17.7206253">
        <ele>23.209</ele>
        <time>2012-05-19T15:36:29Z</time>
      </trkpt>
      <trkpt lat="59.9732181" lon="17.7211789">
        <ele>22.2476</ele>
        <time>2012-05-19T15:36:34Z</time>
      </trkpt>
      <trkpt lat="59.973541" lon="17.7218254">
        <ele>22.2476</ele>
        <time>2012-05-19T15:36:39Z</time>
      </trkpt>
      <trkpt lat="59.9738236" lon="17.7226832">
        <ele>21.767</ele>
        <time>2012-05-19T15:36:45Z</time>
      </trkpt>
      <trkpt lat="59.9740265" lon="17.7236139">
        <ele>22.2476</ele>
        <time>2012-05-19T15:36:51Z</time>
      </trkpt>
      <trkpt lat="59.9742102" lon="17.7248861">
        <ele>24.651</ele>
        <time>2012-05-19T15:36:59Z</time>
      </trkpt>
      <trkpt lat="59.9743366" lon="17.7259498">
        <ele>28.0155</ele>
        <time>2012-05-19T15:37:06Z</time>
      </trkpt>
      <trkpt lat="59.9743797" lon="17.7269719">
        <ele>28.0155</ele>
        <time>2012-05-19T15:37:13Z</time>
      </trkpt>
      <trkpt lat="59.9744035" lon="17.7281674">
        <ele>28.0155</ele>
        <time>2012-05-19T15:37:21Z</time>
      </trkpt>
      <trkpt lat="59.9744232" lon="17.7290044">
        <ele>27.0543</ele>
        <time>2012-05-19T15:37:27Z</time>
      </trkpt>
      <trkpt lat="59.9744183" lon="17.7299119">
        <ele>26.5736</ele>
        <time>2012-05-19T15:37:34Z</time>
      </trkpt>
      <trkpt lat="59.9743108" lon="17.7311823">
        <ele>23.6896</ele>
        <time>2012-05-19T15:37:44Z</time>
      </trkpt>
      <trkpt lat="59.9743019" lon="17.7320807">
        <ele>21.767</ele>
        <time>2012-05-19T15:37:51Z</time>
      </trkpt>
      <trkpt lat="59.9743005" lon="17.7331123">
        <ele>19.8444</ele>
        <time>2012-05-19T15:37:59Z</time>
      </trkpt>
      <trkpt lat="59.9742595" lon="17.7340349">
        <ele>19.3638</ele>
        <time>2012-05-19T15:38:06Z</time>
      </trkpt>
      <trkpt lat="59.9742511" lon="17.7349274">
        <ele>18.8831</ele>
        <time>2012-05-19T15:38:13Z</time>
      </trkpt>
      <trkpt lat="59.9743516" lon="17.7358824">
        <ele>17.9218</ele>
        <time>2012-05-19T15:38:21Z</time>
      </trkpt>
      <trkpt lat="59.9745625" lon="17.7367218">
        <ele>16.9604</ele>
        <time>2012-05-19T15:38:29Z</time>
      </trkpt>
      <trkpt lat="59.9748289" lon="17.7374228">
        <ele>15.999</ele>
        <time>2012-05-19T15:38:36Z</time>
      </trkpt>
      <trkpt lat="59.9751002" lon="17.737908">
        <ele>16.4797</ele>
        <time>2012-05-19T15:38:42Z</time>
      </trkpt>
      <trkpt lat="59.975532" lon="17.7386453">
        <ele>20.325</ele>
        <time>2012-05-19T15:38:51Z</time>
      </trkpt>
      <trkpt lat="59.9759017" lon="17.7393207">
        <ele>19.8444</ele>
        <time>2012-05-19T15:38:59Z</time>
      </trkpt>
      <trkpt lat="59.9761072" lon="17.7396647">
        <ele>20.325</ele>
        <time>2012-05-19T15:39:04Z</time>
      </trkpt>
      <trkpt lat="59.9762237" lon="17.7397742">
        <ele>21.767</ele>
        <time>2012-05-19T15:39:07Z</time>
      </trkpt>
      <trkpt lat="59.9764232" lon="17.7397165">
        <ele>21.767</ele>
        <time>2012-05-19T15:39:12Z</time>
      </trkpt>
      <trkpt lat="59.9767392" lon="17.7394511">
        <ele>21.767</ele>
        <time>2012-05-19T15:39:20Z</time>
      </trkpt>
      <trkpt lat="59.9770197" lon="17.7393443">
        <ele>23.6896</ele>
        <time>2012-05-19T15:39:28Z</time>
      </trkpt>
      <trkpt lat="59.9772644" lon="17.7392085">
        <ele>25.1317</ele>
        <time>2012-05-19T15:39:35Z</time>
      </trkpt>
      <trkpt lat="59.9775727" lon="17.7390751">
        <ele>26.0929</ele>
        <time>2012-05-19T15:39:43Z</time>
      </trkpt>
      <trkpt lat="59.9778161" lon="17.7391141">
        <ele>28.0155</ele>
        <time>2012-05-19T15:39:49Z</time>
      </trkpt>
      <trkpt lat="59.978026" lon="17.7392247">
        <ele>33.3029</ele>
        <time>2012-05-19T15:39:54Z</time>
      </trkpt>
      <trkpt lat="59.9782761" lon="17.7393075">
        <ele>35.7061</ele>
        <time>2012-05-19T15:40:00Z</time>
      </trkpt>
      <trkpt lat="59.978657" lon="17.7393603">
        <ele>32.3416</ele>
        <time>2012-05-19T15:40:08Z</time>
      </trkpt>
      <trkpt lat="59.978702" lon="17.7393582">
        <ele>32.3416</ele>
        <time>2012-05-19T15:40:09Z</time>
      </trkpt>
    </trkseg>
  </trk>
</gpx>